<?xml version='1.0' encoding='UTF-8'?><gpx version="1.1" creator="JPX - https://github.com/jenetics/jpx" xmlns="http://www.topografix.com/GPX/1/1"><trk><trkseg><trkpt lat="45.290479447887414" lon="10.80209256700749"><ele>42.0</ele><time>2026-04-08T13:33:26.001Z</time></trkpt><trkpt lat="45.29038211419555" lon="10.802057261678508"><ele>42.0</ele><time>2026-04-08T13:33:27.001Z</time></trkpt><trkpt lat="45.29029745617845" lon="10.802024323781596"><ele>42.0</ele><time>2026-04-08T13:33:28.001Z</time></trkpt><trkpt lat="45.290203810236754" lon="10.801987844784529"><ele>42.0</ele><time>2026-04-08T13:33:29.001Z</time></trkpt><trkpt lat="45.29011725659527" lon="10.801961368002274"><ele>42.0</ele><time>2026-04-08T13:33:30.001Z</time></trkpt><trkpt lat="45.29003103804545" lon="10.801908337328209"><ele>42.0</ele><time>2026-04-08T13:33:31.001Z</time></trkpt><trkpt lat="45.289931257136836" lon="10.801867382036793"><ele>42.0</ele><time>2026-04-08T13:33:32.001Z</time></trkpt><trkpt lat="45.289802549304675" lon="10.801817540581085"><ele>42.0</ele><time>2026-04-08T13:33:33.001Z</time></trkpt><trkpt lat="45.28968444964752" lon="10.801797372875448"><ele>42.0</ele><time>2026-04-08T13:33:34.001Z</time></trkpt><trkpt lat="45.28956942956082" lon="10.801759972357111"><ele>42.5</ele><time>2026-04-08T13:33:35.001Z</time></trkpt><trkpt lat="45.289452579089584" lon="10.801719114236635"><ele>43.0</ele><time>2026-04-08T13:33:36Z</time></trkpt><trkpt lat="45.28933009883532" lon="10.801684062823968"><ele>43.5</ele><time>2026-04-08T13:33:37Z</time></trkpt><trkpt lat="45.289201627363084" lon="10.801651050171488"><ele>44.0</ele><time>2026-04-08T13:33:38Z</time></trkpt><trkpt lat="45.28907395339164" lon="10.801620471655715"><ele>44.0</ele><time>2026-04-08T13:33:39Z</time></trkpt><trkpt lat="45.28895149358302" lon="10.801590101166273"><ele>44.0</ele><time>2026-04-08T13:33:40Z</time></trkpt><trkpt lat="45.288831112845266" lon="10.801568811305135"><ele>44.0</ele><time>2026-04-08T13:33:41Z</time></trkpt><trkpt lat="45.28870543642052" lon="10.801551938985153"><ele>44.0</ele><time>2026-04-08T13:33:42Z</time></trkpt><trkpt lat="45.28857632336867" lon="10.801533188241095"><ele>43.666666666666664</ele><time>2026-04-08T13:33:43Z</time></trkpt><trkpt lat="45.288443632008914" lon="10.80153215195894"><ele>43.333333333333336</ele><time>2026-04-08T13:33:44Z</time></trkpt><trkpt lat="45.288295599267734" lon="10.801532359615038"><ele>43.0</ele><time>2026-04-08T13:33:45Z</time></trkpt><trkpt lat="45.288095131671945" lon="10.801526186515543"><ele>42.66666666666667</ele><time>2026-04-08T13:33:46Z</time></trkpt><trkpt lat="45.28788462300556" lon="10.801535494441614"><ele>42.333333333333336</ele><time>2026-04-08T13:33:47Z</time></trkpt><trkpt lat="45.287651430356696" lon="10.801547990954774"><ele>42.0</ele><time>2026-04-08T13:33:48Z</time></trkpt><trkpt lat="45.2873999133569" lon="10.80156249071351"><ele>42.0</ele><time>2026-04-08T13:33:49Z</time></trkpt><trkpt lat="45.28713487392644" lon="10.801591025588648"><ele>42.0</ele><time>2026-04-08T13:33:50Z</time></trkpt><trkpt lat="45.28685668220883" lon="10.801593770725885"><ele>42.0</ele><time>2026-04-08T13:33:51Z</time></trkpt><trkpt lat="45.28657534795946" lon="10.801599466334096"><ele>42.0</ele><time>2026-04-08T13:33:52Z</time></trkpt><trkpt lat="45.286295886835376" lon="10.801615472735875"><ele>41.5</ele><time>2026-04-08T13:33:53Z</time></trkpt><trkpt lat="45.286023998816496" lon="10.801638840154107"><ele>41.0</ele><time>2026-04-08T13:33:54Z</time></trkpt><trkpt lat="45.2857461579803" lon="10.801659864253734"><ele>41.0</ele><time>2026-04-08T13:33:55Z</time></trkpt><trkpt lat="45.28546988722811" lon="10.801674561580446"><ele>41.0</ele><time>2026-04-08T13:33:56Z</time></trkpt><trkpt lat="45.28519218047037" lon="10.80168933889591"><ele>41.0</ele><time>2026-04-08T13:33:57Z</time></trkpt><trkpt lat="45.28492181263722" lon="10.80170307851106"><ele>41.0</ele><time>2026-04-08T13:33:58Z</time></trkpt><trkpt lat="45.28465042035359" lon="10.801719177914787"><ele>41.5</ele><time>2026-04-08T13:33:59Z</time></trkpt><trkpt lat="45.28438443596838" lon="10.801740814406765"><ele>42.0</ele><time>2026-04-08T13:34:00Z</time></trkpt><trkpt lat="45.28411594258844" lon="10.801754315298979"><ele>41.5</ele><time>2026-04-08T13:34:01Z</time></trkpt><trkpt lat="45.283848744130516" lon="10.801772417626347"><ele>41.0</ele><time>2026-04-08T13:34:02Z</time></trkpt><trkpt lat="45.28358556547345" lon="10.801787393999767"><ele>41.0</ele><time>2026-04-08T13:34:03Z</time></trkpt><trkpt lat="45.28331916180612" lon="10.801801230820043"><ele>41.0</ele><time>2026-04-08T13:34:04Z</time></trkpt><trkpt lat="45.283053153570016" lon="10.8018159683455"><ele>41.0</ele><time>2026-04-08T13:34:05Z</time></trkpt><trkpt lat="45.28279036842462" lon="10.801834907030413"><ele>41.0</ele><time>2026-04-08T13:34:06Z</time></trkpt><trkpt lat="45.282533629098616" lon="10.801854633377337"><ele>41.0</ele><time>2026-04-08T13:34:07Z</time></trkpt><trkpt lat="45.28227510309658" lon="10.801871466849665"><ele>41.0</ele><time>2026-04-08T13:34:08Z</time></trkpt><trkpt lat="45.28202525473841" lon="10.8018856905048"><ele>41.0</ele><time>2026-04-08T13:34:09Z</time></trkpt><trkpt lat="45.28178509905676" lon="10.801897795181187"><ele>41.0</ele><time>2026-04-08T13:34:10Z</time></trkpt><trkpt lat="45.2815481582579" lon="10.801907806857798"><ele>41.0</ele><time>2026-04-08T13:34:11Z</time></trkpt><trkpt lat="45.28132198823438" lon="10.801920814641994"><ele>41.0</ele><time>2026-04-08T13:34:12Z</time></trkpt><trkpt lat="45.28109891426" lon="10.80193250997559"><ele>41.0</ele><time>2026-04-08T13:34:13Z</time></trkpt><trkpt lat="45.28089097692591" lon="10.801947820043603"><ele>41.0</ele><time>2026-04-08T13:34:14Z</time></trkpt><trkpt lat="45.28068859349128" lon="10.801963337864361"><ele>41.0</ele><time>2026-04-08T13:34:15Z</time></trkpt><trkpt lat="45.28050316653583" lon="10.801962924703748"><ele>40.666666666666664</ele><time>2026-04-08T13:34:16Z</time></trkpt><trkpt lat="45.28032914405219" lon="10.801978818626743"><ele>40.333333333333336</ele><time>2026-04-08T13:34:17Z</time></trkpt><trkpt lat="45.28018068495942" lon="10.801962932556068"><ele>40.0</ele><time>2026-04-08T13:34:18Z</time></trkpt><trkpt lat="45.28001544176145" lon="10.801997327263733"><ele>40.0</ele><time>2026-04-08T13:34:19Z</time></trkpt><trkpt lat="45.27985560007911" lon="10.802005182772351"><ele>40.0</ele><time>2026-04-08T13:34:20Z</time></trkpt><trkpt lat="45.27969876912245" lon="10.802006314497062"><ele>40.0</ele><time>2026-04-08T13:34:21Z</time></trkpt><trkpt lat="45.27953470406737" lon="10.802020247223837"><ele>40.0</ele><time>2026-04-08T13:34:22Z</time></trkpt><trkpt lat="45.27937306888105" lon="10.802031507622717"><ele>40.0</ele><time>2026-04-08T13:34:23Z</time></trkpt><trkpt lat="45.27920639355401" lon="10.80203902409118"><ele>40.0</ele><time>2026-04-08T13:34:24Z</time></trkpt><trkpt lat="45.27904098919372" lon="10.802043259198632"><ele>39.333333333333336</ele><time>2026-04-08T13:34:25Z</time></trkpt><trkpt lat="45.27887788058614" lon="10.802053471398578"><ele>38.666666666666664</ele><time>2026-04-08T13:34:26Z</time></trkpt><trkpt lat="45.278714792525946" lon="10.802061451830578"><ele>38.0</ele><time>2026-04-08T13:34:27Z</time></trkpt><trkpt lat="45.27854909736287" lon="10.80207150561073"><ele>38.0</ele><time>2026-04-08T13:34:28Z</time></trkpt><trkpt lat="45.278383947438655" lon="10.80208482094066"><ele>38.0</ele><time>2026-04-08T13:34:29Z</time></trkpt><trkpt lat="45.27821297670235" lon="10.802097378150656"><ele>38.0</ele><time>2026-04-08T13:34:30Z</time></trkpt><trkpt lat="45.27804021610188" lon="10.80211572101182"><ele>38.33333333333333</ele><time>2026-04-08T13:34:31Z</time></trkpt><trkpt lat="45.27786473785132" lon="10.80213911561559"><ele>38.666666666666664</ele><time>2026-04-08T13:34:32Z</time></trkpt><trkpt lat="45.27768216046614" lon="10.802182937521588"><ele>39.0</ele><time>2026-04-08T13:34:33Z</time></trkpt><trkpt lat="45.277503680136" lon="10.802231981316027"><ele>39.0</ele><time>2026-04-08T13:34:34Z</time></trkpt><trkpt lat="45.27731991994262" lon="10.802278984593748"><ele>39.0</ele><time>2026-04-08T13:34:35Z</time></trkpt><trkpt lat="45.27714758573084" lon="10.802380263366812"><ele>39.0</ele><time>2026-04-08T13:34:36Z</time></trkpt><trkpt lat="45.276969037443784" lon="10.802449302683849"><ele>39.333333333333336</ele><time>2026-04-08T13:34:37Z</time></trkpt><trkpt lat="45.27679661657172" lon="10.802552638962748"><ele>39.66666666666667</ele><time>2026-04-08T13:34:38Z</time></trkpt><trkpt lat="45.27663557862308" lon="10.80269041983703"><ele>40.0</ele><time>2026-04-08T13:34:39Z</time></trkpt><trkpt lat="45.27647173620796" lon="10.80282416120567"><ele>40.333333333333336</ele><time>2026-04-08T13:34:40Z</time></trkpt><trkpt lat="45.27631340479839" lon="10.80296351975085"><ele>40.666666666666664</ele><time>2026-04-08T13:34:41Z</time></trkpt><trkpt lat="45.276164016962326" lon="10.803111779375769"><ele>41.0</ele><time>2026-04-08T13:34:42Z</time></trkpt><trkpt lat="45.27602024719204" lon="10.80326618941494"><ele>41.0</ele><time>2026-04-08T13:34:43Z</time></trkpt><trkpt lat="45.275868501153404" lon="10.803401832967012"><ele>41.0</ele><time>2026-04-08T13:34:44Z</time></trkpt><trkpt lat="45.27572099480741" lon="10.803563352573619"><ele>41.0</ele><time>2026-04-08T13:34:45Z</time></trkpt><trkpt lat="45.2755725884156" lon="10.80372582726368"><ele>41.0</ele><time>2026-04-08T13:34:46Z</time></trkpt><trkpt lat="45.275426407281415" lon="10.803911161489708"><ele>41.0</ele><time>2026-04-08T13:34:47Z</time></trkpt><trkpt lat="45.27526194012526" lon="10.804071256150733"><ele>41.0</ele><time>2026-04-08T13:34:48Z</time></trkpt><trkpt lat="45.27509052958892" lon="10.804234385151926"><ele>40.33333333333333</ele><time>2026-04-08T13:34:49Z</time></trkpt><trkpt lat="45.27490894988016" lon="10.8043898537878"><ele>39.666666666666664</ele><time>2026-04-08T13:34:50Z</time></trkpt><trkpt lat="45.274708634501685" lon="10.804536925902921"><ele>39.0</ele><time>2026-04-08T13:34:51Z</time></trkpt><trkpt lat="45.274497294454044" lon="10.80466879389048"><ele>39.0</ele><time>2026-04-08T13:34:52Z</time></trkpt><trkpt lat="45.27428706417699" lon="10.804770478614442"><ele>39.0</ele><time>2026-04-08T13:34:53Z</time></trkpt><trkpt lat="45.2740700072712" lon="10.80485555144375"><ele>39.0</ele><time>2026-04-08T13:34:54Z</time></trkpt><trkpt lat="45.27384830266531" lon="10.80492356777964"><ele>38.666666666666664</ele><time>2026-04-08T13:34:55Z</time></trkpt><trkpt lat="45.273629451988725" lon="10.80498448780541"><ele>38.33333333333333</ele><time>2026-04-08T13:34:56Z</time></trkpt><trkpt lat="45.27341154456212" lon="10.805046371020845"><ele>38.0</ele><time>2026-04-08T13:34:57Z</time></trkpt><trkpt lat="45.27320494167686" lon="10.805105141013803"><ele>37.666666666666664</ele><time>2026-04-08T13:34:58Z</time></trkpt><trkpt lat="45.27299733214577" lon="10.805163479261749"><ele>37.333333333333336</ele><time>2026-04-08T13:34:59Z</time></trkpt><trkpt lat="45.27279476653484" lon="10.805232773316018"><ele>37.0</ele><time>2026-04-08T13:35:00Z</time></trkpt><trkpt lat="45.27259207491482" lon="10.805294727409054"><ele>37.0</ele><time>2026-04-08T13:35:01Z</time></trkpt><trkpt lat="45.27238903272559" lon="10.805348755827815"><ele>37.0</ele><time>2026-04-08T13:35:02Z</time></trkpt><trkpt lat="45.27218434941542" lon="10.805408207635477"><ele>37.0</ele><time>2026-04-08T13:35:03Z</time></trkpt><trkpt lat="45.27197664917542" lon="10.80546769256483"><ele>37.0</ele><time>2026-04-08T13:35:04Z</time></trkpt><trkpt lat="45.27176823305885" lon="10.805527916882882"><ele>37.0</ele><time>2026-04-08T13:35:05Z</time></trkpt><trkpt lat="45.27156183644161" lon="10.80558663831693"><ele>37.0</ele><time>2026-04-08T13:35:06Z</time></trkpt><trkpt lat="45.27135570595772" lon="10.805638480461807"><ele>37.0</ele><time>2026-04-08T13:35:07Z</time></trkpt><trkpt lat="45.27115045425897" lon="10.805695696413506"><ele>37.0</ele><time>2026-04-08T13:35:08Z</time></trkpt><trkpt lat="45.27095059030902" lon="10.805750140328575"><ele>37.0</ele><time>2026-04-08T13:35:09Z</time></trkpt><trkpt lat="45.27075258423125" lon="10.805806546190194"><ele>37.0</ele><time>2026-04-08T13:35:10Z</time></trkpt><trkpt lat="45.27055304051578" lon="10.805865463938758"><ele>37.0</ele><time>2026-04-08T13:35:11Z</time></trkpt><trkpt lat="45.27035451324226" lon="10.805923713783793"><ele>37.0</ele><time>2026-04-08T13:35:12Z</time></trkpt><trkpt lat="45.270157091891704" lon="10.805980395707671"><ele>37.0</ele><time>2026-04-08T13:35:13Z</time></trkpt><trkpt lat="45.2699672246885" lon="10.806032097314057"><ele>37.0</ele><time>2026-04-08T13:35:14Z</time></trkpt><trkpt lat="45.26977388403637" lon="10.806085936881558"><ele>37.0</ele><time>2026-04-08T13:35:15Z</time></trkpt><trkpt lat="45.269587914067884" lon="10.80613659560541"><ele>36.66666666666667</ele><time>2026-04-08T13:35:16Z</time></trkpt><trkpt lat="45.269403791978114" lon="10.806190002317193"><ele>36.333333333333336</ele><time>2026-04-08T13:35:17Z</time></trkpt><trkpt lat="45.26922276055441" lon="10.806242350837605"><ele>36.0</ele><time>2026-04-08T13:35:18Z</time></trkpt><trkpt lat="45.26904360690266" lon="10.806293043158046"><ele>36.0</ele><time>2026-04-08T13:35:19Z</time></trkpt><trkpt lat="45.26886824764665" lon="10.806345249857968"><ele>36.0</ele><time>2026-04-08T13:35:20Z</time></trkpt><trkpt lat="45.26869478329553" lon="10.806393926010086"><ele>36.0</ele><time>2026-04-08T13:35:21Z</time></trkpt><trkpt lat="45.26852121804644" lon="10.80644610533697"><ele>36.0</ele><time>2026-04-08T13:35:22Z</time></trkpt><trkpt lat="45.26834979835228" lon="10.806495532494361"><ele>36.0</ele><time>2026-04-08T13:35:23Z</time></trkpt><trkpt lat="45.26818060655412" lon="10.806543915702226"><ele>36.0</ele><time>2026-04-08T13:35:24Z</time></trkpt><trkpt lat="45.268013712728575" lon="10.806589217672068"><ele>35.666666666666664</ele><time>2026-04-08T13:35:25Z</time></trkpt><trkpt lat="45.267847692480274" lon="10.806631968645343"><ele>35.33333333333333</ele><time>2026-04-08T13:35:26Z</time></trkpt><trkpt lat="45.267679128897285" lon="10.80667838624646"><ele>35.0</ele><time>2026-04-08T13:35:27Z</time></trkpt><trkpt lat="45.267509098038865" lon="10.80672411697803"><ele>35.0</ele><time>2026-04-08T13:35:28Z</time></trkpt><trkpt lat="45.267338253600435" lon="10.806771146152077"><ele>35.0</ele><time>2026-04-08T13:35:29Z</time></trkpt><trkpt lat="45.26716647623258" lon="10.80682118098015"><ele>35.0</ele><time>2026-04-08T13:35:30Z</time></trkpt><trkpt lat="45.266995025541725" lon="10.806871665355972"><ele>35.666666666666664</ele><time>2026-04-08T13:35:31Z</time></trkpt><trkpt lat="45.266828429767195" lon="10.806920366769397"><ele>36.333333333333336</ele><time>2026-04-08T13:35:32Z</time></trkpt><trkpt lat="45.266665177208466" lon="10.806968951063674"><ele>37.0</ele><time>2026-04-08T13:35:33Z</time></trkpt><trkpt lat="45.266507614989926" lon="10.807013343076667"><ele>37.0</ele><time>2026-04-08T13:35:34Z</time></trkpt><trkpt lat="45.26635778262001" lon="10.807054649174765"><ele>37.0</ele><time>2026-04-08T13:35:35Z</time></trkpt><trkpt lat="45.26622262510125" lon="10.807088856682245"><ele>37.0</ele><time>2026-04-08T13:35:36Z</time></trkpt><trkpt lat="45.266089506770925" lon="10.80712837148654"><ele>37.0</ele><time>2026-04-08T13:35:37Z</time></trkpt><trkpt lat="45.265959004421155" lon="10.807166320236954"><ele>37.0</ele><time>2026-04-08T13:35:38Z</time></trkpt><trkpt lat="45.26583117782693" lon="10.807205694468657"><ele>37.0</ele><time>2026-04-08T13:35:39Z</time></trkpt><trkpt lat="45.265705395419396" lon="10.80723781463748"><ele>37.0</ele><time>2026-04-08T13:35:40Z</time></trkpt><trkpt lat="45.26557690594478" lon="10.807273638085332"><ele>37.0</ele><time>2026-04-08T13:35:41Z</time></trkpt><trkpt lat="45.26544907779189" lon="10.807307412328866"><ele>36.75</ele><time>2026-04-08T13:35:42Z</time></trkpt><trkpt lat="45.26531640778391" lon="10.807344542041298"><ele>36.5</ele><time>2026-04-08T13:35:43Z</time></trkpt><trkpt lat="45.265177261776415" lon="10.807384500546132"><ele>36.25</ele><time>2026-04-08T13:35:44Z</time></trkpt><trkpt lat="45.26504015382945" lon="10.807422442507633"><ele>36.0</ele><time>2026-04-08T13:35:45Z</time></trkpt><trkpt lat="45.26490711070591" lon="10.807460346401838"><ele>36.0</ele><time>2026-04-08T13:35:46Z</time></trkpt><trkpt lat="45.264773862587525" lon="10.807499086865738"><ele>36.0</ele><time>2026-04-08T13:35:47Z</time></trkpt><trkpt lat="45.264637967317796" lon="10.807536843926641"><ele>36.0</ele><time>2026-04-08T13:35:48Z</time></trkpt><trkpt lat="45.26449877704376" lon="10.807572824330368"><ele>36.0</ele><time>2026-04-08T13:35:49Z</time></trkpt><trkpt lat="45.26437003528708" lon="10.80760345586148"><ele>36.0</ele><time>2026-04-08T13:35:50Z</time></trkpt><trkpt lat="45.26422984928942" lon="10.807620427243261"><ele>36.0</ele><time>2026-04-08T13:35:51Z</time></trkpt><trkpt lat="45.2640880341637" lon="10.807632142446515"><ele>36.0</ele><time>2026-04-08T13:35:52Z</time></trkpt><trkpt lat="45.26394103037353" lon="10.807636429790184"><ele>36.0</ele><time>2026-04-08T13:35:53Z</time></trkpt><trkpt lat="45.26379036489859" lon="10.80763143091807"><ele>35.666666666666664</ele><time>2026-04-08T13:35:54Z</time></trkpt><trkpt lat="45.26363779975913" lon="10.807615285440221"><ele>35.33333333333333</ele><time>2026-04-08T13:35:55Z</time></trkpt><trkpt lat="45.26349059051361" lon="10.807588193746103"><ele>35.0</ele><time>2026-04-08T13:35:56Z</time></trkpt><trkpt lat="45.26334049112182" lon="10.807558136728018"><ele>35.0</ele><time>2026-04-08T13:35:57Z</time></trkpt><trkpt lat="45.263185430834135" lon="10.807523640599136"><ele>35.0</ele><time>2026-04-08T13:35:58Z</time></trkpt><trkpt lat="45.26302612575544" lon="10.807484924557123"><ele>35.0</ele><time>2026-04-08T13:35:59Z</time></trkpt><trkpt lat="45.262859484280895" lon="10.807446095488299"><ele>35.0</ele><time>2026-04-08T13:36:00Z</time></trkpt><trkpt lat="45.26268583560655" lon="10.807405756248727"><ele>35.0</ele><time>2026-04-08T13:36:01Z</time></trkpt><trkpt lat="45.26250971272326" lon="10.807366465725641"><ele>35.0</ele><time>2026-04-08T13:36:02Z</time></trkpt><trkpt lat="45.26233167134546" lon="10.807324865220187"><ele>34.666666666666664</ele><time>2026-04-08T13:36:03Z</time></trkpt><trkpt lat="45.262152077524796" lon="10.80728100508211"><ele>34.333333333333336</ele><time>2026-04-08T13:36:04Z</time></trkpt><trkpt lat="45.2619709046411" lon="10.807236202426433"><ele>34.0</ele><time>2026-04-08T13:36:05Z</time></trkpt><trkpt lat="45.261786007294674" lon="10.807192564264557"><ele>34.0</ele><time>2026-04-08T13:36:06Z</time></trkpt><trkpt lat="45.26159906093396" lon="10.80714777652709"><ele>34.0</ele><time>2026-04-08T13:36:07Z</time></trkpt><trkpt lat="45.261416755852224" lon="10.807101641298543"><ele>34.0</ele><time>2026-04-08T13:36:08Z</time></trkpt><trkpt lat="45.261236635487464" lon="10.807058330498618"><ele>33.66666666666667</ele><time>2026-04-08T13:36:09Z</time></trkpt><trkpt lat="45.26105849614095" lon="10.807014962301075"><ele>33.333333333333336</ele><time>2026-04-08T13:36:10Z</time></trkpt><trkpt lat="45.26088252401961" lon="10.806972027558976"><ele>33.0</ele><time>2026-04-08T13:36:11Z</time></trkpt><trkpt lat="45.2607091792513" lon="10.806929439402829"><ele>33.0</ele><time>2026-04-08T13:36:12Z</time></trkpt><trkpt lat="45.260536022488125" lon="10.806885999601873"><ele>33.0</ele><time>2026-04-08T13:36:13Z</time></trkpt><trkpt lat="45.26036012993043" lon="10.806842555001925"><ele>33.0</ele><time>2026-04-08T13:36:14Z</time></trkpt><trkpt lat="45.260181167158045" lon="10.806797518202027"><ele>32.666666666666664</ele><time>2026-04-08T13:36:15Z</time></trkpt><trkpt lat="45.259997921108635" lon="10.806751925180865"><ele>32.33333333333333</ele><time>2026-04-08T13:36:16Z</time></trkpt><trkpt lat="45.259809983474625" lon="10.806706264209001"><ele>32.0</ele><time>2026-04-08T13:36:17Z</time></trkpt><trkpt lat="45.259619791852316" lon="10.806662269471449"><ele>32.0</ele><time>2026-04-08T13:36:18Z</time></trkpt><trkpt lat="45.25942651687372" lon="10.806614602961837"><ele>32.0</ele><time>2026-04-08T13:36:19Z</time></trkpt><trkpt lat="45.25922901385315" lon="10.806567293881981"><ele>32.0</ele><time>2026-04-08T13:36:20Z</time></trkpt><trkpt lat="45.259027858033974" lon="10.806518097374736"><ele>32.0</ele><time>2026-04-08T13:36:21Z</time></trkpt><trkpt lat="45.258822092319086" lon="10.806465267882201"><ele>32.0</ele><time>2026-04-08T13:36:22Z</time></trkpt><trkpt lat="45.258612277230476" lon="10.806412116363775"><ele>32.0</ele><time>2026-04-08T13:36:23Z</time></trkpt><trkpt lat="45.25839878116" lon="10.806357208231843"><ele>32.0</ele><time>2026-04-08T13:36:24Z</time></trkpt><trkpt lat="45.25817982717325" lon="10.806301650491676"><ele>32.0</ele><time>2026-04-08T13:36:25Z</time></trkpt><trkpt lat="45.25795720653895" lon="10.80624714945451"><ele>32.0</ele><time>2026-04-08T13:36:26Z</time></trkpt><trkpt lat="45.257733585008644" lon="10.806192928425585"><ele>32.5</ele><time>2026-04-08T13:36:27Z</time></trkpt><trkpt lat="45.25750599025867" lon="10.806137039964614"><ele>33.0</ele><time>2026-04-08T13:36:28Z</time></trkpt><trkpt lat="45.25727734648833" lon="10.806082796541704"><ele>33.0</ele><time>2026-04-08T13:36:29Z</time></trkpt><trkpt lat="45.25704551702294" lon="10.806024773458761"><ele>33.0</ele><time>2026-04-08T13:36:30Z</time></trkpt><trkpt lat="45.256809987302155" lon="10.805966497624473"><ele>33.0</ele><time>2026-04-08T13:36:31Z</time></trkpt><trkpt lat="45.256573868272625" lon="10.80590380789126"><ele>33.0</ele><time>2026-04-08T13:36:32Z</time></trkpt><trkpt lat="45.25633936341014" lon="10.805845453474092"><ele>33.0</ele><time>2026-04-08T13:36:33Z</time></trkpt><trkpt lat="45.256107544045655" lon="10.805789344085367"><ele>33.0</ele><time>2026-04-08T13:36:34Z</time></trkpt><trkpt lat="45.25587704858381" lon="10.805734916338931"><ele>33.0</ele><time>2026-04-08T13:36:35Z</time></trkpt><trkpt lat="45.255645836639616" lon="10.80567988250366"><ele>33.0</ele><time>2026-04-08T13:36:36Z</time></trkpt><trkpt lat="45.25541392324183" lon="10.805623362338869"><ele>31.5</ele><time>2026-04-08T13:36:37Z</time></trkpt><trkpt lat="45.25517790103523" lon="10.80556740339766"><ele>30.0</ele><time>2026-04-08T13:36:38Z</time></trkpt><trkpt lat="45.25494619460912" lon="10.805511180620739"><ele>31.5</ele><time>2026-04-08T13:36:39Z</time></trkpt><trkpt lat="45.25471900082881" lon="10.805457243718823"><ele>33.0</ele><time>2026-04-08T13:36:40Z</time></trkpt><trkpt lat="45.25449587327508" lon="10.80540468090796"><ele>33.0</ele><time>2026-04-08T13:36:41Z</time></trkpt><trkpt lat="45.254275610596444" lon="10.80535115212709"><ele>33.0</ele><time>2026-04-08T13:36:42Z</time></trkpt><trkpt lat="45.25405814843687" lon="10.805297726310572"><ele>33.0</ele><time>2026-04-08T13:36:43Z</time></trkpt><trkpt lat="45.25384508559095" lon="10.805244421753391"><ele>33.0</ele><time>2026-04-08T13:36:44Z</time></trkpt><trkpt lat="45.25363456698091" lon="10.805193194493356"><ele>33.0</ele><time>2026-04-08T13:36:45Z</time></trkpt><trkpt lat="45.25342864885289" lon="10.80514213274394"><ele>33.0</ele><time>2026-04-08T13:36:46Z</time></trkpt><trkpt lat="45.25322537620289" lon="10.805090477843233"><ele>33.333333333333336</ele><time>2026-04-08T13:36:47Z</time></trkpt><trkpt lat="45.25303111144677" lon="10.805042068017114"><ele>33.66666666666667</ele><time>2026-04-08T13:36:48Z</time></trkpt><trkpt lat="45.252846771128574" lon="10.804996725877562"><ele>34.0</ele><time>2026-04-08T13:36:49Z</time></trkpt><trkpt lat="45.25266929594384" lon="10.804954395457472"><ele>34.0</ele><time>2026-04-08T13:36:50Z</time></trkpt><trkpt lat="45.2525051927774" lon="10.804915038057676"><ele>34.0</ele><time>2026-04-08T13:36:51Z</time></trkpt><trkpt lat="45.252346367024586" lon="10.804873866751137"><ele>34.0</ele><time>2026-04-08T13:36:52Z</time></trkpt><trkpt lat="45.25218741076598" lon="10.804831520415844"><ele>33.66666666666667</ele><time>2026-04-08T13:36:53Z</time></trkpt><trkpt lat="45.25202651613821" lon="10.804790512856478"><ele>33.333333333333336</ele><time>2026-04-08T13:36:54Z</time></trkpt><trkpt lat="45.25186160666373" lon="10.80475068302898"><ele>33.0</ele><time>2026-04-08T13:36:55Z</time></trkpt><trkpt lat="45.25169424467845" lon="10.804710656575224"><ele>33.0</ele><time>2026-04-08T13:36:56Z</time></trkpt><trkpt lat="45.25152777181923" lon="10.804668906858241"><ele>33.0</ele><time>2026-04-08T13:36:57Z</time></trkpt><trkpt lat="45.251361806852884" lon="10.804623221196545"><ele>33.0</ele><time>2026-04-08T13:36:58Z</time></trkpt><trkpt lat="45.25120759045484" lon="10.804578389311231"><ele>32.75</ele><time>2026-04-08T13:36:59Z</time></trkpt><trkpt lat="45.25107376572835" lon="10.804537215570885"><ele>32.5</ele><time>2026-04-08T13:37:00Z</time></trkpt><trkpt lat="45.250945655640976" lon="10.80448463107442"><ele>32.25</ele><time>2026-04-08T13:37:01Z</time></trkpt><trkpt lat="45.250829234562985" lon="10.804401128888426"><ele>32.0</ele><time>2026-04-08T13:37:02Z</time></trkpt><trkpt lat="45.25072573900048" lon="10.804288047644983"><ele>32.0</ele><time>2026-04-08T13:37:03Z</time></trkpt><trkpt lat="45.25063008925369" lon="10.804168998055195"><ele>32.0</ele><time>2026-04-08T13:37:04Z</time></trkpt><trkpt lat="45.250518064018436" lon="10.804083872970248"><ele>32.0</ele><time>2026-04-08T13:37:05Z</time></trkpt><trkpt lat="45.25038636259089" lon="10.804056399893168"><ele>32.0</ele><time>2026-04-08T13:37:06Z</time></trkpt><trkpt lat="45.250251351816125" lon="10.804102225880936"><ele>32.0</ele><time>2026-04-08T13:37:07Z</time></trkpt><trkpt lat="45.25011233373065" lon="10.804165445321308"><ele>32.0</ele><time>2026-04-08T13:37:08Z</time></trkpt><trkpt lat="45.2499621307511" lon="10.804201250358057"><ele>32.0</ele><time>2026-04-08T13:37:09Z</time></trkpt><trkpt lat="45.24980652547323" lon="10.804209622513214"><ele>31.333333333333332</ele><time>2026-04-08T13:37:10Z</time></trkpt><trkpt lat="45.24965247076597" lon="10.804192967789263"><ele>30.666666666666664</ele><time>2026-04-08T13:37:11Z</time></trkpt><trkpt lat="45.24950470370217" lon="10.804163972695036"><ele>30.0</ele><time>2026-04-08T13:37:12Z</time></trkpt><trkpt lat="45.24935848078835" lon="10.80413579679963"><ele>30.0</ele><time>2026-04-08T13:37:13Z</time></trkpt><trkpt lat="45.249208856222175" lon="10.804104191528834"><ele>30.0</ele><time>2026-04-08T13:37:14Z</time></trkpt><trkpt lat="45.24905435784259" lon="10.804069598287192"><ele>30.0</ele><time>2026-04-08T13:37:15Z</time></trkpt><trkpt lat="45.248897087306645" lon="10.804032956509168"><ele>30.666666666666664</ele><time>2026-04-08T13:37:16Z</time></trkpt><trkpt lat="45.24874039187557" lon="10.803995540512632"><ele>31.333333333333332</ele><time>2026-04-08T13:37:17Z</time></trkpt><trkpt lat="45.24857600044251" lon="10.803952646499486"><ele>32.0</ele><time>2026-04-08T13:37:18Z</time></trkpt><trkpt lat="45.248416374448524" lon="10.803911555755985"><ele>32.0</ele><time>2026-04-08T13:37:19Z</time></trkpt><trkpt lat="45.24825006298368" lon="10.803869109886776"><ele>32.0</ele><time>2026-04-08T13:37:20Z</time></trkpt><trkpt lat="45.24807680564713" lon="10.803826279229423"><ele>32.0</ele><time>2026-04-08T13:37:21Z</time></trkpt><trkpt lat="45.24789588564596" lon="10.803782695640272"><ele>32.0</ele><time>2026-04-08T13:37:22Z</time></trkpt><trkpt lat="45.247712750210155" lon="10.803737028291586"><ele>32.0</ele><time>2026-04-08T13:37:23Z</time></trkpt><trkpt lat="45.24753103266441" lon="10.803691547714484"><ele>32.0</ele><time>2026-04-08T13:37:24Z</time></trkpt><trkpt lat="45.24734828037459" lon="10.803646377226393"><ele>32.33333333333333</ele><time>2026-04-08T13:37:25Z</time></trkpt><trkpt lat="45.247162429223685" lon="10.80359715887"><ele>32.666666666666664</ele><time>2026-04-08T13:37:26Z</time></trkpt><trkpt lat="45.24697292941687" lon="10.803549443082685"><ele>33.0</ele><time>2026-04-08T13:37:27Z</time></trkpt><trkpt lat="45.24678648764017" lon="10.803503978802663"><ele>32.666666666666664</ele><time>2026-04-08T13:37:28Z</time></trkpt><trkpt lat="45.24660056098849" lon="10.803458683685253"><ele>32.33333333333333</ele><time>2026-04-08T13:37:29Z</time></trkpt><trkpt lat="45.24641530073555" lon="10.803414062954054"><ele>32.0</ele><time>2026-04-08T13:37:30Z</time></trkpt><trkpt lat="45.24623294794973" lon="10.803372181793236"><ele>32.0</ele><time>2026-04-08T13:37:31Z</time></trkpt><trkpt lat="45.246053659512775" lon="10.803331743978344"><ele>32.0</ele><time>2026-04-08T13:37:32Z</time></trkpt><trkpt lat="45.24587789892169" lon="10.803290139989933"><ele>32.0</ele><time>2026-04-08T13:37:33Z</time></trkpt><trkpt lat="45.24570478118599" lon="10.803247587039541"><ele>32.33333333333333</ele><time>2026-04-08T13:37:34Z</time></trkpt><trkpt lat="45.24553793991227" lon="10.803205584236348"><ele>32.666666666666664</ele><time>2026-04-08T13:37:35Z</time></trkpt><trkpt lat="45.24537747139902" lon="10.803164235340152"><ele>33.0</ele><time>2026-04-08T13:37:36Z</time></trkpt><trkpt lat="45.245225988320534" lon="10.803126262737106"><ele>33.0</ele><time>2026-04-08T13:37:37Z</time></trkpt><trkpt lat="45.24509635389799" lon="10.803094735797643"><ele>33.0</ele><time>2026-04-08T13:37:38Z</time></trkpt><trkpt lat="45.2449731966441" lon="10.80306603733506"><ele>33.0</ele><time>2026-04-08T13:37:39Z</time></trkpt><trkpt lat="45.24485282500795" lon="10.80303769889599"><ele>33.0</ele><time>2026-04-08T13:37:40Z</time></trkpt><trkpt lat="45.244734490786826" lon="10.803010411375453"><ele>32.5</ele><time>2026-04-08T13:37:41Z</time></trkpt><trkpt lat="45.244618481165794" lon="10.802983786474117"><ele>32.0</ele><time>2026-04-08T13:37:42Z</time></trkpt><trkpt lat="45.2445025131781" lon="10.802954878988816"><ele>31.5</ele><time>2026-04-08T13:37:43Z</time></trkpt><trkpt lat="45.244389430750715" lon="10.802927768951475"><ele>31.0</ele><time>2026-04-08T13:37:44Z</time></trkpt><trkpt lat="45.24427577799608" lon="10.802900907852745"><ele>31.0</ele><time>2026-04-08T13:37:45Z</time></trkpt><trkpt lat="45.24416397834218" lon="10.802875320107187"><ele>31.0</ele><time>2026-04-08T13:37:46Z</time></trkpt><trkpt lat="45.24405178810373" lon="10.802849959088958"><ele>31.0</ele><time>2026-04-08T13:37:47Z</time></trkpt><trkpt lat="45.243938928285814" lon="10.802823613859088"><ele>31.0</ele><time>2026-04-08T13:37:48Z</time></trkpt><trkpt lat="45.24382568420324" lon="10.802795967460717"><ele>31.0</ele><time>2026-04-08T13:37:49Z</time></trkpt><trkpt lat="45.243713382098214" lon="10.802766382494774"><ele>31.0</ele><time>2026-04-08T13:37:50Z</time></trkpt><trkpt lat="45.243602326852056" lon="10.80273769517541"><ele>31.0</ele><time>2026-04-08T13:37:51Z</time></trkpt><trkpt lat="45.24349360152455" lon="10.802711598771127"><ele>31.0</ele><time>2026-04-08T13:37:52Z</time></trkpt><trkpt lat="45.24338724012804" lon="10.802685888640678"><ele>31.0</ele><time>2026-04-08T13:37:53Z</time></trkpt><trkpt lat="45.24328340200463" lon="10.802660521818757"><ele>31.0</ele><time>2026-04-08T13:37:54Z</time></trkpt><trkpt lat="45.24318031685398" lon="10.802635106425273"><ele>31.0</ele><time>2026-04-08T13:37:55Z</time></trkpt><trkpt lat="45.243077104797365" lon="10.80260975854356"><ele>31.0</ele><time>2026-04-08T13:37:56Z</time></trkpt><trkpt lat="45.24297540915944" lon="10.802585837840795"><ele>31.0</ele><time>2026-04-08T13:37:57Z</time></trkpt><trkpt lat="45.24287366247623" lon="10.80256122803908"><ele>31.0</ele><time>2026-04-08T13:37:58Z</time></trkpt><trkpt lat="45.2427742574846" lon="10.80253719826244"><ele>31.0</ele><time>2026-04-08T13:37:59Z</time></trkpt><trkpt lat="45.24267957007364" lon="10.802514213955416"><ele>31.0</ele><time>2026-04-08T13:38:00Z</time></trkpt><trkpt lat="45.24258387649856" lon="10.802491049414035"><ele>31.0</ele><time>2026-04-08T13:38:01Z</time></trkpt><trkpt lat="45.24248741672747" lon="10.802467668692644"><ele>31.0</ele><time>2026-04-08T13:38:02Z</time></trkpt><trkpt lat="45.24238835137808" lon="10.802443478811377"><ele>31.0</ele><time>2026-04-08T13:38:03Z</time></trkpt><trkpt lat="45.24228853911661" lon="10.802419058083546"><ele>31.0</ele><time>2026-04-08T13:38:04Z</time></trkpt><trkpt lat="45.24218918431158" lon="10.802394564797424"><ele>31.0</ele><time>2026-04-08T13:38:05Z</time></trkpt><trkpt lat="45.242094605415126" lon="10.802371254728905"><ele>31.0</ele><time>2026-04-08T13:38:06Z</time></trkpt><trkpt lat="45.242003132711645" lon="10.802348670742935"><ele>31.0</ele><time>2026-04-08T13:38:07Z</time></trkpt><trkpt lat="45.241914806354856" lon="10.802327697688558"><ele>31.0</ele><time>2026-04-08T13:38:08Z</time></trkpt><trkpt lat="45.241830086984" lon="10.802307756587862"><ele>31.000000000000004</ele><time>2026-04-08T13:38:09Z</time></trkpt><trkpt lat="45.24174702188133" lon="10.802288093690624"><ele>31.0</ele><time>2026-04-08T13:38:10Z</time></trkpt><trkpt lat="45.24166224901964" lon="10.802267717495592"><ele>31.0</ele><time>2026-04-08T13:38:11Z</time></trkpt><trkpt lat="45.241576845619434" lon="10.802248037494763"><ele>31.0</ele><time>2026-04-08T13:38:12Z</time></trkpt><trkpt lat="45.24149398596278" lon="10.802228088877365"><ele>31.000000000000004</ele><time>2026-04-08T13:38:13Z</time></trkpt><trkpt lat="45.24141268507866" lon="10.802207928592393"><ele>31.0</ele><time>2026-04-08T13:38:14Z</time></trkpt><trkpt lat="45.24133279885264" lon="10.80218869786719"><ele>31.142857142857146</ele><time>2026-04-08T13:38:15Z</time></trkpt><trkpt lat="45.24125751893607" lon="10.802169314753888"><ele>31.28571428571429</ele><time>2026-04-08T13:38:16Z</time></trkpt><trkpt lat="45.24118431650312" lon="10.80215114152465"><ele>31.42857142857143</ele><time>2026-04-08T13:38:17Z</time></trkpt><trkpt lat="45.24111049895299" lon="10.802132950891044"><ele>31.57142857142857</ele><time>2026-04-08T13:38:18Z</time></trkpt><trkpt lat="45.241036819726986" lon="10.802114438284667"><ele>31.71428571428571</ele><time>2026-04-08T13:38:19Z</time></trkpt><trkpt lat="45.24096502575151" lon="10.8020967230471"><ele>31.857142857142854</ele><time>2026-04-08T13:38:20Z</time></trkpt><trkpt lat="45.24089251293409" lon="10.802078055002537"><ele>32.0</ele><time>2026-04-08T13:38:21Z</time></trkpt><trkpt lat="45.24081286434244" lon="10.802056992831004"><ele>31.999999999999996</ele><time>2026-04-08T13:38:22Z</time></trkpt><trkpt lat="45.240728601586284" lon="10.802036053941542"><ele>32.0</ele><time>2026-04-08T13:38:23Z</time></trkpt><trkpt lat="45.24064382793486" lon="10.802016878080689"><ele>32.0</ele><time>2026-04-08T13:38:24Z</time></trkpt><trkpt lat="45.240557848589724" lon="10.801996568662947"><ele>32.0</ele><time>2026-04-08T13:38:25Z</time></trkpt><trkpt lat="45.24046922254091" lon="10.801972261818833"><ele>31.999999999999996</ele><time>2026-04-08T13:38:26Z</time></trkpt><trkpt lat="45.24038539460317" lon="10.801948850624441"><ele>32.0</ele><time>2026-04-08T13:38:27Z</time></trkpt><trkpt lat="45.240298082358954" lon="10.80192623325286"><ele>32.0</ele><time>2026-04-08T13:38:28Z</time></trkpt><trkpt lat="45.240202449238744" lon="10.801903893905816"><ele>32.0</ele><time>2026-04-08T13:38:29Z</time></trkpt><trkpt lat="45.24010070951095" lon="10.801879347906583"><ele>32.0</ele><time>2026-04-08T13:38:30Z</time></trkpt><trkpt lat="45.24000381272511" lon="10.801856365491211"><ele>32.0</ele><time>2026-04-08T13:38:31Z</time></trkpt><trkpt lat="45.239912140149634" lon="10.801833101186489"><ele>32.0</ele><time>2026-04-08T13:38:32Z</time></trkpt><trkpt lat="45.239817036243366" lon="10.801807942565283"><ele>32.2</ele><time>2026-04-08T13:38:33Z</time></trkpt><trkpt lat="45.23971740438954" lon="10.801783234246582"><ele>32.400000000000006</ele><time>2026-04-08T13:38:34Z</time></trkpt><trkpt lat="45.23962191668008" lon="10.801760228506446"><ele>32.599999999999994</ele><time>2026-04-08T13:38:35Z</time></trkpt><trkpt lat="45.239527754017814" lon="10.801737936655897"><ele>32.8</ele><time>2026-04-08T13:38:36Z</time></trkpt><trkpt lat="45.239436028172044" lon="10.801715178161276"><ele>33.0</ele><time>2026-04-08T13:38:37Z</time></trkpt><trkpt lat="45.239349903668696" lon="10.801693197697746"><ele>33.0</ele><time>2026-04-08T13:38:38Z</time></trkpt><trkpt lat="45.23926702987162" lon="10.801674000807663"><ele>33.0</ele><time>2026-04-08T13:38:39Z</time></trkpt><trkpt lat="45.23918867741593" lon="10.80165606244036"><ele>33.0</ele><time>2026-04-08T13:38:40Z</time></trkpt><trkpt lat="45.23911465336617" lon="10.801637489208986"><ele>33.0</ele><time>2026-04-08T13:38:41Z</time></trkpt><trkpt lat="45.23904718522427" lon="10.801620770321904"><ele>33.0</ele><time>2026-04-08T13:38:42Z</time></trkpt><trkpt lat="45.23894144515109" lon="10.801594033470836"><ele>33.0</ele><time>2026-04-08T13:38:44Z</time></trkpt><trkpt lat="45.2388582410854" lon="10.801572615858086"><ele>32.666666666666664</ele><time>2026-04-08T13:38:46Z</time></trkpt><trkpt lat="45.23877009822604" lon="10.80155151117881"><ele>32.333333333333336</ele><time>2026-04-08T13:38:48Z</time></trkpt><trkpt lat="45.23870638504089" lon="10.801538943350273"><ele>32.0</ele><time>2026-04-08T13:38:49Z</time></trkpt><trkpt lat="45.23863607456817" lon="10.801525332903125"><ele>31.666666666666668</ele><time>2026-04-08T13:38:50Z</time></trkpt><trkpt lat="45.23855476537419" lon="10.801508611780477"><ele>31.333333333333336</ele><time>2026-04-08T13:38:51Z</time></trkpt><trkpt lat="45.238472405468954" lon="10.801485966092697"><ele>31.0</ele><time>2026-04-08T13:38:52Z</time></trkpt><trkpt lat="45.23838204059499" lon="10.80146548528368"><ele>31.0</ele><time>2026-04-08T13:38:53Z</time></trkpt><trkpt lat="45.23828868500303" lon="10.801451715658242"><ele>31.0</ele><time>2026-04-08T13:38:54Z</time></trkpt><trkpt lat="45.238188393104714" lon="10.801437323337607"><ele>31.0</ele><time>2026-04-08T13:38:55Z</time></trkpt><trkpt lat="45.23806773862271" lon="10.801408614702604"><ele>31.0</ele><time>2026-04-08T13:38:56Z</time></trkpt><trkpt lat="45.23792766238474" lon="10.801354052988787"><ele>31.333333333333336</ele><time>2026-04-08T13:38:57Z</time></trkpt><trkpt lat="45.23776594219694" lon="10.801315829921165"><ele>31.666666666666664</ele><time>2026-04-08T13:38:58Z</time></trkpt><trkpt lat="45.23759220098179" lon="10.801274765650927"><ele>32.0</ele><time>2026-04-08T13:38:59Z</time></trkpt><trkpt lat="45.23740660893958" lon="10.801229895629367"><ele>32.0</ele><time>2026-04-08T13:39:00Z</time></trkpt><trkpt lat="45.23720884896804" lon="10.801182058172191"><ele>32.0</ele><time>2026-04-08T13:39:01Z</time></trkpt><trkpt lat="45.23699872665936" lon="10.801131515805032"><ele>32.0</ele><time>2026-04-08T13:39:02Z</time></trkpt><trkpt lat="45.236776186918895" lon="10.801077986584689"><ele>32.0</ele><time>2026-04-08T13:39:03Z</time></trkpt><trkpt lat="45.23653863736534" lon="10.80103611517677"><ele>32.0</ele><time>2026-04-08T13:39:04Z</time></trkpt><trkpt lat="45.236285886640395" lon="10.800981642960787"><ele>31.0</ele><time>2026-04-08T13:39:05Z</time></trkpt><trkpt lat="45.236021449455876" lon="10.800896768548839"><ele>30.0</ele><time>2026-04-08T13:39:06Z</time></trkpt><trkpt lat="45.23574339871315" lon="10.800830341142666"><ele>30.5</ele><time>2026-04-08T13:39:07Z</time></trkpt><trkpt lat="45.235455688588544" lon="10.800785379968193"><ele>31.0</ele><time>2026-04-08T13:39:08Z</time></trkpt><trkpt lat="45.23516674578784" lon="10.800708918869228"><ele>31.0</ele><time>2026-04-08T13:39:09Z</time></trkpt><trkpt lat="45.2348725333313" lon="10.800625927106944"><ele>31.0</ele><time>2026-04-08T13:39:10Z</time></trkpt><trkpt lat="45.2345780627472" lon="10.800544329069062"><ele>30.5</ele><time>2026-04-08T13:39:11Z</time></trkpt><trkpt lat="45.23428346906142" lon="10.800466833509486"><ele>30.0</ele><time>2026-04-08T13:39:12Z</time></trkpt><trkpt lat="45.23399186969724" lon="10.800395679098038"><ele>31.0</ele><time>2026-04-08T13:39:13Z</time></trkpt><trkpt lat="45.23370237137015" lon="10.800326517287022"><ele>32.0</ele><time>2026-04-08T13:39:14Z</time></trkpt><trkpt lat="45.233415686915315" lon="10.800258487156128"><ele>31.5</ele><time>2026-04-08T13:39:15Z</time></trkpt><trkpt lat="45.23312961747389" lon="10.800192779100701"><ele>31.0</ele><time>2026-04-08T13:39:16Z</time></trkpt><trkpt lat="45.232845604990395" lon="10.80012525629929"><ele>31.0</ele><time>2026-04-08T13:39:17Z</time></trkpt><trkpt lat="45.232562629466365" lon="10.80005827226162"><ele>31.0</ele><time>2026-04-08T13:39:18Z</time></trkpt><trkpt lat="45.232280502131545" lon="10.799991669428657"><ele>31.0</ele><time>2026-04-08T13:39:19Z</time></trkpt><trkpt lat="45.231999131897055" lon="10.799924998732656"><ele>31.0</ele><time>2026-04-08T13:39:20Z</time></trkpt><trkpt lat="45.23171877130293" lon="10.799858279269152"><ele>31.0</ele><time>2026-04-08T13:39:21Z</time></trkpt><trkpt lat="45.231437992720004" lon="10.79979305075034"><ele>31.0</ele><time>2026-04-08T13:39:22Z</time></trkpt><trkpt lat="45.23115895432037" lon="10.799727810747337"><ele>31.0</ele><time>2026-04-08T13:39:23Z</time></trkpt><trkpt lat="45.23088030438376" lon="10.799663578947786"><ele>31.0</ele><time>2026-04-08T13:39:24Z</time></trkpt><trkpt lat="45.23060190654048" lon="10.799599011571239"><ele>32.0</ele><time>2026-04-08T13:39:25Z</time></trkpt><trkpt lat="45.230324044071736" lon="10.799534410948086"><ele>33.0</ele><time>2026-04-08T13:39:26Z</time></trkpt><trkpt lat="45.23004667595138" lon="10.799468275509197"><ele>32.0</ele><time>2026-04-08T13:39:27Z</time></trkpt><trkpt lat="45.22977004479064" lon="10.799402833115996"><ele>31.0</ele><time>2026-04-08T13:39:28Z</time></trkpt><trkpt lat="45.229494541005465" lon="10.79933559415956"><ele>31.0</ele><time>2026-04-08T13:39:29Z</time></trkpt><trkpt lat="45.22921935896727" lon="10.799269018510666"><ele>31.0</ele><time>2026-04-08T13:39:30Z</time></trkpt><trkpt lat="45.228945235462234" lon="10.799203273278863"><ele>31.0</ele><time>2026-04-08T13:39:31Z</time></trkpt><trkpt lat="45.22867122697261" lon="10.799139296487654"><ele>31.0</ele><time>2026-04-08T13:39:32Z</time></trkpt><trkpt lat="45.22839738132893" lon="10.799074733083486"><ele>31.5</ele><time>2026-04-08T13:39:33Z</time></trkpt><trkpt lat="45.228122253012835" lon="10.799010789804793"><ele>32.0</ele><time>2026-04-08T13:39:34Z</time></trkpt><trkpt lat="45.22784857495807" lon="10.798945558161652"><ele>32.0</ele><time>2026-04-08T13:39:35Z</time></trkpt><trkpt lat="45.227575050681565" lon="10.79887820648413"><ele>32.0</ele><time>2026-04-08T13:39:36Z</time></trkpt><trkpt lat="45.22730061140989" lon="10.798812409452593"><ele>31.5</ele><time>2026-04-08T13:39:37Z</time></trkpt><trkpt lat="45.22702634452695" lon="10.798749889838726"><ele>31.0</ele><time>2026-04-08T13:39:38Z</time></trkpt><trkpt lat="45.226753630621886" lon="10.79868923967639"><ele>31.0</ele><time>2026-04-08T13:39:39Z</time></trkpt><trkpt lat="45.226481234571594" lon="10.798628624356935"><ele>31.0</ele><time>2026-04-08T13:39:40Z</time></trkpt><trkpt lat="45.22621009813281" lon="10.798566933145885"><ele>31.0</ele><time>2026-04-08T13:39:41Z</time></trkpt><trkpt lat="45.2259428035456" lon="10.798504806618642"><ele>31.0</ele><time>2026-04-08T13:39:42Z</time></trkpt><trkpt lat="45.22568089785186" lon="10.798440772381632"><ele>31.5</ele><time>2026-04-08T13:39:43Z</time></trkpt><trkpt lat="45.22542260023699" lon="10.798377199030806"><ele>32.0</ele><time>2026-04-08T13:39:44Z</time></trkpt><trkpt lat="45.22516789529541" lon="10.79831645908057"><ele>32.0</ele><time>2026-04-08T13:39:45Z</time></trkpt><trkpt lat="45.22491733636094" lon="10.798258579409055"><ele>32.0</ele><time>2026-04-08T13:39:46Z</time></trkpt><trkpt lat="45.22467192988334" lon="10.798200804020908"><ele>32.5</ele><time>2026-04-08T13:39:47Z</time></trkpt><trkpt lat="45.2244285299576" lon="10.798143006939933"><ele>33.0</ele><time>2026-04-08T13:39:48Z</time></trkpt><trkpt lat="45.2241912507123" lon="10.798088755615042"><ele>32.5</ele><time>2026-04-08T13:39:49Z</time></trkpt><trkpt lat="45.22395692032195" lon="10.798035847221792"><ele>32.0</ele><time>2026-04-08T13:39:50Z</time></trkpt><trkpt lat="45.223733663511304" lon="10.797983664713625"><ele>32.0</ele><time>2026-04-08T13:39:51Z</time></trkpt><trkpt lat="45.2235158165057" lon="10.797933173038489"><ele>32.0</ele><time>2026-04-08T13:39:52Z</time></trkpt><trkpt lat="45.223302303548145" lon="10.797883620615357"><ele>32.0</ele><time>2026-04-08T13:39:53Z</time></trkpt><trkpt lat="45.22309722486885" lon="10.797836223940596"><ele>31.666666666666664</ele><time>2026-04-08T13:39:54Z</time></trkpt><trkpt lat="45.222909138901215" lon="10.797791133829293"><ele>31.333333333333336</ele><time>2026-04-08T13:39:55Z</time></trkpt><trkpt lat="45.22274437452044" lon="10.797748366780192"><ele>31.0</ele><time>2026-04-08T13:39:56Z</time></trkpt><trkpt lat="45.22260239171782" lon="10.79768862928371"><ele>31.25</ele><time>2026-04-08T13:39:57Z</time></trkpt><trkpt lat="45.22247531140696" lon="10.797591634196365"><ele>31.5</ele><time>2026-04-08T13:39:58Z</time></trkpt><trkpt lat="45.22237129077446" lon="10.797455924000136"><ele>31.75</ele><time>2026-04-08T13:39:59Z</time></trkpt><trkpt lat="45.222279334908066" lon="10.797331625675906"><ele>32.0</ele><time>2026-04-08T13:40:00Z</time></trkpt><trkpt lat="45.22218219940198" lon="10.7972747373268"><ele>32.0</ele><time>2026-04-08T13:40:01Z</time></trkpt><trkpt lat="45.22207267555408" lon="10.797270774307627"><ele>32.0</ele><time>2026-04-08T13:40:02Z</time></trkpt><trkpt lat="45.22196533163913" lon="10.797331641308169"><ele>32.0</ele><time>2026-04-08T13:40:03Z</time></trkpt><trkpt lat="45.22186101028034" lon="10.797422702573758"><ele>32.0</ele><time>2026-04-08T13:40:04Z</time></trkpt><trkpt lat="45.22174438344827" lon="10.79748556107571"><ele>32.0</ele><time>2026-04-08T13:40:05Z</time></trkpt><trkpt lat="45.221612266118555" lon="10.797499786579248"><ele>32.0</ele><time>2026-04-08T13:40:06Z</time></trkpt><trkpt lat="45.221469427913995" lon="10.797472938131921"><ele>32.0</ele><time>2026-04-08T13:40:07Z</time></trkpt><trkpt lat="45.22132134856229" lon="10.797428271400795"><ele>32.0</ele><time>2026-04-08T13:40:08Z</time></trkpt><trkpt lat="45.221158320293576" lon="10.797385502263692"><ele>32.0</ele><time>2026-04-08T13:40:09Z</time></trkpt><trkpt lat="45.22098042487161" lon="10.797341873048977"><ele>32.0</ele><time>2026-04-08T13:40:10Z</time></trkpt><trkpt lat="45.220789876570684" lon="10.797294599771153"><ele>32.0</ele><time>2026-04-08T13:40:11Z</time></trkpt><trkpt lat="45.22058664672293" lon="10.797246195089635"><ele>32.33333333333333</ele><time>2026-04-08T13:40:12Z</time></trkpt><trkpt lat="45.22037069225353" lon="10.797195122804533"><ele>32.666666666666664</ele><time>2026-04-08T13:40:13Z</time></trkpt><trkpt lat="45.220147286077385" lon="10.797142936438064"><ele>33.0</ele><time>2026-04-08T13:40:14Z</time></trkpt><trkpt lat="45.21991808304276" lon="10.797086714494522"><ele>32.0</ele><time>2026-04-08T13:40:15Z</time></trkpt><trkpt lat="45.21968393567674" lon="10.797029036410686"><ele>31.0</ele><time>2026-04-08T13:40:16Z</time></trkpt><trkpt lat="45.2194524601119" lon="10.796972863039468"><ele>31.0</ele><time>2026-04-08T13:40:17Z</time></trkpt><trkpt lat="45.219227365927644" lon="10.796917814602317"><ele>31.0</ele><time>2026-04-08T13:40:18Z</time></trkpt><trkpt lat="45.21901252799008" lon="10.796865704317835"><ele>31.0</ele><time>2026-04-08T13:40:19Z</time></trkpt><trkpt lat="45.21881859571726" lon="10.796817582256413"><ele>31.0</ele><time>2026-04-08T13:40:20Z</time></trkpt><trkpt lat="45.21863746748062" lon="10.796773428547684"><ele>31.0</ele><time>2026-04-08T13:40:21Z</time></trkpt><trkpt lat="45.21846226883771" lon="10.796733745661848"><ele>31.0</ele><time>2026-04-08T13:40:22Z</time></trkpt><trkpt lat="45.218296239743204" lon="10.796698543382986"><ele>31.333333333333336</ele><time>2026-04-08T13:40:23Z</time></trkpt><trkpt lat="45.21812317238849" lon="10.796666852736845"><ele>31.666666666666664</ele><time>2026-04-08T13:40:24Z</time></trkpt><trkpt lat="45.217950796117556" lon="10.796634305800556"><ele>32.0</ele><time>2026-04-08T13:40:25Z</time></trkpt><trkpt lat="45.217794944925785" lon="10.796592449144608"><ele>32.0</ele><time>2026-04-08T13:40:26Z</time></trkpt><trkpt lat="45.21765339855188" lon="10.796552803019928"><ele>32.0</ele><time>2026-04-08T13:40:27Z</time></trkpt><trkpt lat="45.217520505923694" lon="10.796518102906358"><ele>32.0</ele><time>2026-04-08T13:40:28Z</time></trkpt><trkpt lat="45.21739117699574" lon="10.796485424196494"><ele>32.0</ele><time>2026-04-08T13:40:29Z</time></trkpt><trkpt lat="45.217264830288784" lon="10.796453349566193"><ele>32.5</ele><time>2026-04-08T13:40:30Z</time></trkpt><trkpt lat="45.21714106361381" lon="10.796423373908134"><ele>33.0</ele><time>2026-04-08T13:40:31Z</time></trkpt><trkpt lat="45.21702015503089" lon="10.79639529348026"><ele>33.5</ele><time>2026-04-08T13:40:32Z</time></trkpt><trkpt lat="45.21690724281311" lon="10.796369632721916"><ele>34.0</ele><time>2026-04-08T13:40:33Z</time></trkpt><trkpt lat="45.216799776112914" lon="10.796342391671521"><ele>34.0</ele><time>2026-04-08T13:40:34Z</time></trkpt><trkpt lat="45.216683186650386" lon="10.796312907801234"><ele>34.0</ele><time>2026-04-08T13:40:35Z</time></trkpt><trkpt lat="45.21656124675261" lon="10.796277109258337"><ele>34.0</ele><time>2026-04-08T13:40:36Z</time></trkpt><trkpt lat="45.216445999059104" lon="10.796243402396078"><ele>34.0</ele><time>2026-04-08T13:40:37Z</time></trkpt><trkpt lat="45.216333152152245" lon="10.796212540155533"><ele>34.0</ele><time>2026-04-08T13:40:38Z</time></trkpt><trkpt lat="45.216224959571974" lon="10.79618461622168"><ele>34.0</ele><time>2026-04-08T13:40:39Z</time></trkpt><trkpt lat="45.21612507680906" lon="10.796163736596487"><ele>34.0</ele><time>2026-04-08T13:40:40Z</time></trkpt><trkpt lat="45.216039197128985" lon="10.796144188377765"><ele>34.0</ele><time>2026-04-08T13:40:41Z</time></trkpt><trkpt lat="45.21594634395742" lon="10.796129481636576"><ele>34.0</ele><time>2026-04-08T13:40:42Z</time></trkpt><trkpt lat="45.21584383481953" lon="10.796098216547797"><ele>34.0</ele><time>2026-04-08T13:40:43Z</time></trkpt><trkpt lat="45.21572667040893" lon="10.79606325723508"><ele>34.0</ele><time>2026-04-08T13:40:44Z</time></trkpt><trkpt lat="45.21560217593264" lon="10.79602873074377"><ele>34.0</ele><time>2026-04-08T13:40:45Z</time></trkpt><trkpt lat="45.215473989871185" lon="10.795995130713026"><ele>34.0</ele><time>2026-04-08T13:40:46Z</time></trkpt><trkpt lat="45.21534308697713" lon="10.795960694934061"><ele>33.75</ele><time>2026-04-08T13:40:47Z</time></trkpt><trkpt lat="45.21520820545508" lon="10.795928225128737"><ele>33.5</ele><time>2026-04-08T13:40:48Z</time></trkpt><trkpt lat="45.21507008981348" lon="10.795896293364539"><ele>33.25</ele><time>2026-04-08T13:40:49Z</time></trkpt><trkpt lat="45.214928193276506" lon="10.795866228114196"><ele>33.0</ele><time>2026-04-08T13:40:50Z</time></trkpt><trkpt lat="45.214783684016616" lon="10.795835154480244"><ele>32.75</ele><time>2026-04-08T13:40:51Z</time></trkpt><trkpt lat="45.21463952756491" lon="10.795803424313771"><ele>32.5</ele><time>2026-04-08T13:40:52Z</time></trkpt><trkpt lat="45.214498230635904" lon="10.795771769146453"><ele>32.25</ele><time>2026-04-08T13:40:53Z</time></trkpt><trkpt lat="45.2143602262488" lon="10.795741616278663"><ele>32.0</ele><time>2026-04-08T13:40:54Z</time></trkpt><trkpt lat="45.21422285009388" lon="10.795712577886132"><ele>32.0</ele><time>2026-04-08T13:40:55Z</time></trkpt><trkpt lat="45.21408525401775" lon="10.795683283078324"><ele>32.0</ele><time>2026-04-08T13:40:56Z</time></trkpt><trkpt lat="45.21394671672274" lon="10.795654789593124"><ele>32.0</ele><time>2026-04-08T13:40:57Z</time></trkpt><trkpt lat="45.213806788803815" lon="10.795625179337954"><ele>32.0</ele><time>2026-04-08T13:40:58Z</time></trkpt><trkpt lat="45.213663299824965" lon="10.795593592757749"><ele>31.333333333333332</ele><time>2026-04-08T13:40:59Z</time></trkpt><trkpt lat="45.21351548939671" lon="10.795560465738067"><ele>30.666666666666664</ele><time>2026-04-08T13:41:00Z</time></trkpt><trkpt lat="45.2133631188267" lon="10.795525790941937"><ele>30.0</ele><time>2026-04-08T13:41:01Z</time></trkpt><trkpt lat="45.213207168687305" lon="10.79549009513048"><ele>30.0</ele><time>2026-04-08T13:41:02Z</time></trkpt><trkpt lat="45.21305343286071" lon="10.795453903410621"><ele>30.0</ele><time>2026-04-08T13:41:03Z</time></trkpt><trkpt lat="45.21289336752584" lon="10.795417626174663"><ele>30.0</ele><time>2026-04-08T13:41:04Z</time></trkpt><trkpt lat="45.212730501263714" lon="10.795380980365014"><ele>30.0</ele><time>2026-04-08T13:41:05Z</time></trkpt><trkpt lat="45.212567104003504" lon="10.795345338439699"><ele>30.0</ele><time>2026-04-08T13:41:06Z</time></trkpt><trkpt lat="45.21240178752586" lon="10.795308956721016"><ele>30.0</ele><time>2026-04-08T13:41:07Z</time></trkpt><trkpt lat="45.21223613862463" lon="10.79527378260994"><ele>30.333333333333336</ele><time>2026-04-08T13:41:08Z</time></trkpt><trkpt lat="45.21207157117059" lon="10.79523596399682"><ele>30.666666666666668</ele><time>2026-04-08T13:41:09Z</time></trkpt><trkpt lat="45.21190667461808" lon="10.795196074246242"><ele>31.0</ele><time>2026-04-08T13:41:10Z</time></trkpt><trkpt lat="45.21174072004623" lon="10.795155290858114"><ele>31.0</ele><time>2026-04-08T13:41:11Z</time></trkpt><trkpt lat="45.21157097053891" lon="10.795114001740112"><ele>31.0</ele><time>2026-04-08T13:41:12Z</time></trkpt><trkpt lat="45.21140518931174" lon="10.795073963271623"><ele>31.0</ele><time>2026-04-08T13:41:13Z</time></trkpt><trkpt lat="45.211241390048286" lon="10.795034210152679"><ele>31.0</ele><time>2026-04-08T13:41:14Z</time></trkpt><trkpt lat="45.211079255539495" lon="10.794995222475736"><ele>31.0</ele><time>2026-04-08T13:41:15Z</time></trkpt><trkpt lat="45.21091415526687" lon="10.794956930414763"><ele>31.0</ele><time>2026-04-08T13:41:16Z</time></trkpt><trkpt lat="45.21074670129254" lon="10.79491864908025"><ele>31.0</ele><time>2026-04-08T13:41:17Z</time></trkpt><trkpt lat="45.2105769400472" lon="10.794880736008814"><ele>31.0</ele><time>2026-04-08T13:41:18Z</time></trkpt><trkpt lat="45.210406577688936" lon="10.79483910262741"><ele>31.0</ele><time>2026-04-08T13:41:19Z</time></trkpt><trkpt lat="45.2102402964805" lon="10.79480130934637"><ele>31.0</ele><time>2026-04-08T13:41:20Z</time></trkpt><trkpt lat="45.21007446243217" lon="10.794760664722942"><ele>31.0</ele><time>2026-04-08T13:41:21Z</time></trkpt><trkpt lat="45.20990656715456" lon="10.794714655360211"><ele>31.0</ele><time>2026-04-08T13:41:22Z</time></trkpt><trkpt lat="45.20973643436824" lon="10.794665230227407"><ele>30.666666666666668</ele><time>2026-04-08T13:41:23Z</time></trkpt><trkpt lat="45.20956221825453" lon="10.794615676892393"><ele>30.333333333333336</ele><time>2026-04-08T13:41:24Z</time></trkpt><trkpt lat="45.20938712529415" lon="10.794564661379438"><ele>30.0</ele><time>2026-04-08T13:41:25Z</time></trkpt><trkpt lat="45.2092126999522" lon="10.794517276035254"><ele>30.0</ele><time>2026-04-08T13:41:26Z</time></trkpt><trkpt lat="45.20904122663296" lon="10.79447305204817"><ele>30.0</ele><time>2026-04-08T13:41:27Z</time></trkpt><trkpt lat="45.20887087185381" lon="10.794432423178426"><ele>30.0</ele><time>2026-04-08T13:41:28Z</time></trkpt><trkpt lat="45.208704861665986" lon="10.794396500104327"><ele>29.666666666666664</ele><time>2026-04-08T13:41:29Z</time></trkpt><trkpt lat="45.20854016630917" lon="10.794363033883053"><ele>29.333333333333332</ele><time>2026-04-08T13:41:30Z</time></trkpt><trkpt lat="45.208376600381456" lon="10.794330333520195"><ele>29.0</ele><time>2026-04-08T13:41:31Z</time></trkpt><trkpt lat="45.208215864987174" lon="10.794298297441669"><ele>29.666666666666664</ele><time>2026-04-08T13:41:32Z</time></trkpt><trkpt lat="45.20805848978144" lon="10.794266411537333"><ele>30.333333333333336</ele><time>2026-04-08T13:41:33Z</time></trkpt><trkpt lat="45.207901468583024" lon="10.794233464717664"><ele>31.0</ele><time>2026-04-08T13:41:34Z</time></trkpt><trkpt lat="45.20774739091167" lon="10.79420065494759"><ele>31.0</ele><time>2026-04-08T13:41:35Z</time></trkpt><trkpt lat="45.20759607669298" lon="10.794168765849262"><ele>31.0</ele><time>2026-04-08T13:41:36Z</time></trkpt><trkpt lat="45.207447088565104" lon="10.79413715790485"><ele>31.0</ele><time>2026-04-08T13:41:37Z</time></trkpt><trkpt lat="45.207295861226235" lon="10.79410195553502"><ele>31.0</ele><time>2026-04-08T13:41:38Z</time></trkpt><trkpt lat="45.20714088119775" lon="10.794065986057655"><ele>31.0</ele><time>2026-04-08T13:41:39Z</time></trkpt><trkpt lat="45.206982460091346" lon="10.79403076893225"><ele>31.0</ele><time>2026-04-08T13:41:40Z</time></trkpt><trkpt lat="45.206819505984846" lon="10.793993880446479"><ele>31.0</ele><time>2026-04-08T13:41:41Z</time></trkpt><trkpt lat="45.20665290923495" lon="10.7939558674092"><ele>31.0</ele><time>2026-04-08T13:41:42Z</time></trkpt><trkpt lat="45.20648315291855" lon="10.793915086138705"><ele>31.0</ele><time>2026-04-08T13:41:43Z</time></trkpt><trkpt lat="45.20631782210357" lon="10.793874927355137"><ele>31.666666666666668</ele><time>2026-04-08T13:41:44Z</time></trkpt><trkpt lat="45.20615453602494" lon="10.793834619584192"><ele>32.333333333333336</ele><time>2026-04-08T13:41:45Z</time></trkpt><trkpt lat="45.20599450800973" lon="10.793795707778262"><ele>33.0</ele><time>2026-04-08T13:41:46Z</time></trkpt><trkpt lat="45.20583611680018" lon="10.793758461675484"><ele>33.0</ele><time>2026-04-08T13:41:47Z</time></trkpt><trkpt lat="45.205682989948045" lon="10.793722249167734"><ele>33.0</ele><time>2026-04-08T13:41:48Z</time></trkpt><trkpt lat="45.20553909662063" lon="10.793688436208312"><ele>33.0</ele><time>2026-04-08T13:41:49Z</time></trkpt><trkpt lat="45.20540804455079" lon="10.793658200723515"><ele>33.0</ele><time>2026-04-08T13:41:50Z</time></trkpt><trkpt lat="45.2052923871802" lon="10.793631393973023"><ele>32.833333333333336</ele><time>2026-04-08T13:41:51Z</time></trkpt><trkpt lat="45.20519308385071" lon="10.793608575248134"><ele>32.666666666666664</ele><time>2026-04-08T13:41:52Z</time></trkpt><trkpt lat="45.205118314889155" lon="10.793590777585555"><ele>32.5</ele><time>2026-04-08T13:41:53Z</time></trkpt><trkpt lat="45.20502711562977" lon="10.793570154881884"><ele>32.33333333333333</ele><time>2026-04-08T13:41:55Z</time></trkpt><trkpt lat="45.20493998622498" lon="10.793547420400808"><ele>32.166666666666664</ele><time>2026-04-08T13:42:04Z</time></trkpt><trkpt lat="45.20485295819155" lon="10.79352697927762"><ele>32.0</ele><time>2026-04-08T13:42:06Z</time></trkpt><trkpt lat="45.20475562984387" lon="10.793505531640141"><ele>31.6</ele><time>2026-04-08T13:42:08Z</time></trkpt><trkpt lat="45.2046369952482" lon="10.793479722507785"><ele>31.200000000000003</ele><time>2026-04-08T13:42:10Z</time></trkpt><trkpt lat="45.20456149885318" lon="10.79346257542421"><ele>30.8</ele><time>2026-04-08T13:42:11Z</time></trkpt><trkpt lat="45.20448049342014" lon="10.793444304934425"><ele>30.4</ele><time>2026-04-08T13:42:12Z</time></trkpt><trkpt lat="45.20440459194783" lon="10.793426020169495"><ele>30.0</ele><time>2026-04-08T13:42:13Z</time></trkpt><trkpt lat="45.20430643933178" lon="10.793401965176974"><ele>30.0</ele><time>2026-04-08T13:42:15Z</time></trkpt><trkpt lat="45.20423727449089" lon="10.793382726742646"><ele>30.0</ele><time>2026-04-08T13:42:31Z</time></trkpt><trkpt lat="45.204171761954576" lon="10.793362884474053"><ele>30.0</ele><time>2026-04-08T13:42:33Z</time></trkpt><trkpt lat="45.204064523634635" lon="10.793338383990966"><ele>30.0</ele><time>2026-04-08T13:42:35Z</time></trkpt><trkpt lat="45.203950653067785" lon="10.793311033310653"><ele>30.0</ele><time>2026-04-08T13:42:37Z</time></trkpt><trkpt lat="45.20384323091664" lon="10.7932829810554"><ele>30.166666666666668</ele><time>2026-04-08T13:42:39Z</time></trkpt><trkpt lat="45.203752075096624" lon="10.793261356247195"><ele>30.333333333333336</ele><time>2026-04-08T13:42:41Z</time></trkpt><trkpt lat="45.20367764946305" lon="10.793248584613563"><ele>30.5</ele><time>2026-04-08T13:42:44Z</time></trkpt><trkpt lat="45.20360722762294" lon="10.793250944978137"><ele>30.666666666666668</ele><time>2026-04-08T13:43:35Z</time></trkpt><trkpt lat="45.203484005632426" lon="10.793220862928472"><ele>30.833333333333336</ele><time>2026-04-08T13:43:37Z</time></trkpt><trkpt lat="45.20340155639655" lon="10.793199635847571"><ele>31.0</ele><time>2026-04-08T13:43:38Z</time></trkpt><trkpt lat="45.20331688183077" lon="10.79317653300469"><ele>31.0</ele><time>2026-04-08T13:43:39Z</time></trkpt><trkpt lat="45.20322899206848" lon="10.793153114968584"><ele>31.0</ele><time>2026-04-08T13:43:40Z</time></trkpt><trkpt lat="45.203135118646244" lon="10.793128144777864"><ele>31.0</ele><time>2026-04-08T13:43:41Z</time></trkpt><trkpt lat="45.20303552208891" lon="10.793102834426357"><ele>31.0</ele><time>2026-04-08T13:43:42Z</time></trkpt><trkpt lat="45.20292842372468" lon="10.793078388594953"><ele>31.0</ele><time>2026-04-08T13:43:43Z</time></trkpt><trkpt lat="45.202820101685845" lon="10.793054409341986"><ele>31.200000000000003</ele><time>2026-04-08T13:43:44Z</time></trkpt><trkpt lat="45.20271722650076" lon="10.793030633863761"><ele>31.400000000000002</ele><time>2026-04-08T13:43:45Z</time></trkpt><trkpt lat="45.20261676709735" lon="10.793007972478122"><ele>31.6</ele><time>2026-04-08T13:43:46Z</time></trkpt><trkpt lat="45.202511681355155" lon="10.792983588986077"><ele>31.8</ele><time>2026-04-08T13:43:47Z</time></trkpt><trkpt lat="45.2024091591186" lon="10.792958795280638"><ele>32.0</ele><time>2026-04-08T13:43:48Z</time></trkpt><trkpt lat="45.2023012600823" lon="10.792933756956103"><ele>32.0</ele><time>2026-04-08T13:43:49Z</time></trkpt><trkpt lat="45.20218858521122" lon="10.792907939119814"><ele>32.0</ele><time>2026-04-08T13:43:50Z</time></trkpt><trkpt lat="45.202075207118575" lon="10.792880038520693"><ele>32.0</ele><time>2026-04-08T13:43:51Z</time></trkpt><trkpt lat="45.20195880922599" lon="10.792852106963444"><ele>32.0</ele><time>2026-04-08T13:43:52Z</time></trkpt><trkpt lat="45.201842919974744" lon="10.792825752851053"><ele>32.0</ele><time>2026-04-08T13:43:53Z</time></trkpt><trkpt lat="45.201731246705705" lon="10.792799470320974"><ele>32.0</ele><time>2026-04-08T13:43:54Z</time></trkpt><trkpt lat="45.2016199777151" lon="10.792772962027078"><ele>32.0</ele><time>2026-04-08T13:43:55Z</time></trkpt><trkpt lat="45.201521284230815" lon="10.792747776637981"><ele>32.0</ele><time>2026-04-08T13:43:56Z</time></trkpt><trkpt lat="45.20143475600026" lon="10.792725109234837"><ele>32.0</ele><time>2026-04-08T13:43:57Z</time></trkpt><trkpt lat="45.201357562653726" lon="10.792703885738629"><ele>31.999999999999996</ele><time>2026-04-08T13:43:58Z</time></trkpt><trkpt lat="45.20128789512665" lon="10.792685285687574"><ele>32.0</ele><time>2026-04-08T13:43:59Z</time></trkpt><trkpt lat="45.20121905759675" lon="10.792668617295618"><ele>32.0</ele><time>2026-04-08T13:44:00Z</time></trkpt><trkpt lat="45.20114090972039" lon="10.792652424711882"><ele>32.0</ele><time>2026-04-08T13:44:01Z</time></trkpt><trkpt lat="45.201046406617756" lon="10.79263233732694"><ele>31.999999999999996</ele><time>2026-04-08T13:44:02Z</time></trkpt><trkpt lat="45.200936628822255" lon="10.792608454211509"><ele>32.0</ele><time>2026-04-08T13:44:03Z</time></trkpt><trkpt lat="45.200814120501036" lon="10.792580663946124"><ele>32.25</ele><time>2026-04-08T13:44:04Z</time></trkpt><trkpt lat="45.200677665496656" lon="10.792551465932807"><ele>32.5</ele><time>2026-04-08T13:44:05Z</time></trkpt><trkpt lat="45.20053925586669" lon="10.792518931645272"><ele>32.75</ele><time>2026-04-08T13:44:06Z</time></trkpt><trkpt lat="45.20039462296837" lon="10.792483631196099"><ele>33.0</ele><time>2026-04-08T13:44:07Z</time></trkpt><trkpt lat="45.20024478104834" lon="10.792446144135607"><ele>32.0</ele><time>2026-04-08T13:44:08Z</time></trkpt><trkpt lat="45.20008729398471" lon="10.792408872735974"><ele>31.0</ele><time>2026-04-08T13:44:09Z</time></trkpt><trkpt lat="45.19992749679986" lon="10.792370561847715"><ele>30.0</ele><time>2026-04-08T13:44:10Z</time></trkpt><trkpt lat="45.199770878633586" lon="10.792332997382992"><ele>29.666666666666664</ele><time>2026-04-08T13:44:11Z</time></trkpt><trkpt lat="45.19961351560438" lon="10.792296506675346"><ele>29.333333333333332</ele><time>2026-04-08T13:44:12Z</time></trkpt><trkpt lat="45.19945588048382" lon="10.792258922220968"><ele>29.0</ele><time>2026-04-08T13:44:13Z</time></trkpt><trkpt lat="45.19929660834879" lon="10.792220160025199"><ele>29.0</ele><time>2026-04-08T13:44:14Z</time></trkpt><trkpt lat="45.19913407434807" lon="10.792181391565455"><ele>29.0</ele><time>2026-04-08T13:44:15Z</time></trkpt><trkpt lat="45.19896937690025" lon="10.79214243620352"><ele>29.0</ele><time>2026-04-08T13:44:16Z</time></trkpt><trkpt lat="45.19880123246821" lon="10.792101917698332"><ele>29.333333333333332</ele><time>2026-04-08T13:44:17Z</time></trkpt><trkpt lat="45.19863053508805" lon="10.792061526655953"><ele>29.666666666666664</ele><time>2026-04-08T13:44:18Z</time></trkpt><trkpt lat="45.19845900054693" lon="10.792019863182313"><ele>30.0</ele><time>2026-04-08T13:44:19Z</time></trkpt><trkpt lat="45.198284849576055" lon="10.79197959046423"><ele>31.0</ele><time>2026-04-08T13:44:20Z</time></trkpt><trkpt lat="45.19810911924412" lon="10.7919404800416"><ele>32.0</ele><time>2026-04-08T13:44:21Z</time></trkpt><trkpt lat="45.197935517167956" lon="10.791900207783591"><ele>33.0</ele><time>2026-04-08T13:44:22Z</time></trkpt><trkpt lat="45.19775926748091" lon="10.79185894772721"><ele>32.333333333333336</ele><time>2026-04-08T13:44:23Z</time></trkpt><trkpt lat="45.19758096713451" lon="10.791816589247265"><ele>31.666666666666668</ele><time>2026-04-08T13:44:24Z</time></trkpt><trkpt lat="45.19739971050369" lon="10.7917745024433"><ele>31.0</ele><time>2026-04-08T13:44:25Z</time></trkpt><trkpt lat="45.197218119540494" lon="10.791732655382768"><ele>30.666666666666668</ele><time>2026-04-08T13:44:26Z</time></trkpt><trkpt lat="45.19704122715769" lon="10.791691515056762"><ele>30.333333333333336</ele><time>2026-04-08T13:44:27Z</time></trkpt><trkpt lat="45.19686605408353" lon="10.791649224359182"><ele>30.0</ele><time>2026-04-08T13:44:28Z</time></trkpt><trkpt lat="45.19669381767683" lon="10.79160932665447"><ele>30.0</ele><time>2026-04-08T13:44:29Z</time></trkpt><trkpt lat="45.19652449416921" lon="10.791569044773281"><ele>30.0</ele><time>2026-04-08T13:44:30Z</time></trkpt><trkpt lat="45.19635846048566" lon="10.791529391653295"><ele>30.0</ele><time>2026-04-08T13:44:31Z</time></trkpt><trkpt lat="45.196191147300034" lon="10.791489950979173"><ele>29.666666666666664</ele><time>2026-04-08T13:44:32Z</time></trkpt><trkpt lat="45.196023170470966" lon="10.791451448240172"><ele>29.333333333333332</ele><time>2026-04-08T13:44:33Z</time></trkpt><trkpt lat="45.19585479616099" lon="10.791413490352038"><ele>29.0</ele><time>2026-04-08T13:44:34Z</time></trkpt><trkpt lat="45.19568988757077" lon="10.791376860630427"><ele>29.25</ele><time>2026-04-08T13:44:35Z</time></trkpt><trkpt lat="45.19553381506906" lon="10.79134042063469"><ele>29.5</ele><time>2026-04-08T13:44:36Z</time></trkpt><trkpt lat="45.19539728484187" lon="10.791307968358563"><ele>29.75</ele><time>2026-04-08T13:44:37Z</time></trkpt><trkpt lat="45.195274055274375" lon="10.791276807104342"><ele>30.0</ele><time>2026-04-08T13:44:38Z</time></trkpt><trkpt lat="45.19515471898976" lon="10.791247578022586"><ele>30.0</ele><time>2026-04-08T13:44:39Z</time></trkpt><trkpt lat="45.19503642219966" lon="10.791220700128695"><ele>30.0</ele><time>2026-04-08T13:44:40Z</time></trkpt><trkpt lat="45.19492074523294" lon="10.791193467721092"><ele>30.0</ele><time>2026-04-08T13:44:41Z</time></trkpt><trkpt lat="45.19480834280527" lon="10.791167121664797"><ele>30.0</ele><time>2026-04-08T13:44:42Z</time></trkpt><trkpt lat="45.194698690288256" lon="10.791141490576576"><ele>30.25</ele><time>2026-04-08T13:44:43Z</time></trkpt><trkpt lat="45.19458848337036" lon="10.791116396231802"><ele>30.5</ele><time>2026-04-08T13:44:44Z</time></trkpt><trkpt lat="45.19447466714542" lon="10.791089983022864"><ele>30.75</ele><time>2026-04-08T13:44:45Z</time></trkpt><trkpt lat="45.19436058147422" lon="10.791063299367398"><ele>31.0</ele><time>2026-04-08T13:44:46Z</time></trkpt><trkpt lat="45.19424666832744" lon="10.791035011416518"><ele>30.75</ele><time>2026-04-08T13:44:47Z</time></trkpt><trkpt lat="45.19412949774324" lon="10.79100629746413"><ele>30.5</ele><time>2026-04-08T13:44:48Z</time></trkpt><trkpt lat="45.1940107270139" lon="10.790976828414228"><ele>30.25</ele><time>2026-04-08T13:44:49Z</time></trkpt><trkpt lat="45.19389729600609" lon="10.790949873672192"><ele>30.0</ele><time>2026-04-08T13:44:50Z</time></trkpt><trkpt lat="45.193785678011736" lon="10.790924385586036"><ele>30.0</ele><time>2026-04-08T13:44:51Z</time></trkpt><trkpt lat="45.193676022137474" lon="10.790898322375522"><ele>30.0</ele><time>2026-04-08T13:44:52Z</time></trkpt><trkpt lat="45.193572849900974" lon="10.790873111541853"><ele>30.0</ele><time>2026-04-08T13:44:53Z</time></trkpt><trkpt lat="45.19348269813468" lon="10.790850249637083"><ele>30.0</ele><time>2026-04-08T13:44:54Z</time></trkpt><trkpt lat="45.19340769993633" lon="10.790827914505366"><ele>30.0</ele><time>2026-04-08T13:44:55Z</time></trkpt><trkpt lat="45.19329365653169" lon="10.790789027677764"><ele>30.0</ele><time>2026-04-08T13:44:57Z</time></trkpt><trkpt lat="45.19322264230996" lon="10.790777130203622"><ele>30.0</ele><time>2026-04-08T13:44:58Z</time></trkpt><trkpt lat="45.193135642765306" lon="10.790761756807198"><ele>30.0</ele><time>2026-04-08T13:44:59Z</time></trkpt><trkpt lat="45.19303622826365" lon="10.790742349621732"><ele>30.0</ele><time>2026-04-08T13:45:00Z</time></trkpt><trkpt lat="45.19292452220076" lon="10.790714825469447"><ele>30.0</ele><time>2026-04-08T13:45:01Z</time></trkpt><trkpt lat="45.19280263467314" lon="10.79068472222918"><ele>30.25</ele><time>2026-04-08T13:45:02Z</time></trkpt><trkpt lat="45.19267555803993" lon="10.790651921233232"><ele>30.5</ele><time>2026-04-08T13:45:03Z</time></trkpt><trkpt lat="45.192546370540086" lon="10.79061967829064"><ele>30.75</ele><time>2026-04-08T13:45:04Z</time></trkpt><trkpt lat="45.192410815939375" lon="10.790587465450765"><ele>31.0</ele><time>2026-04-08T13:45:05Z</time></trkpt><trkpt lat="45.19227426160313" lon="10.790556600629236"><ele>31.0</ele><time>2026-04-08T13:45:06Z</time></trkpt><trkpt lat="45.19213473320597" lon="10.790524222476225"><ele>31.0</ele><time>2026-04-08T13:45:07Z</time></trkpt><trkpt lat="45.191995891475905" lon="10.79049198860478"><ele>31.0</ele><time>2026-04-08T13:45:08Z</time></trkpt><trkpt lat="45.191858302990674" lon="10.790459770751522"><ele>31.0</ele><time>2026-04-08T13:45:09Z</time></trkpt><trkpt lat="45.19172335151767" lon="10.79042765724849"><ele>31.0</ele><time>2026-04-08T13:45:10Z</time></trkpt><trkpt lat="45.19159379579843" lon="10.790397415167346"><ele>31.0</ele><time>2026-04-08T13:45:11Z</time></trkpt><trkpt lat="45.19146359214644" lon="10.79036605245139"><ele>31.0</ele><time>2026-04-08T13:45:12Z</time></trkpt><trkpt lat="45.19133803416046" lon="10.790336692396458"><ele>31.0</ele><time>2026-04-08T13:45:13Z</time></trkpt><trkpt lat="45.19121615145271" lon="10.790306865353289"><ele>30.75</ele><time>2026-04-08T13:45:14Z</time></trkpt><trkpt lat="45.19109590745078" lon="10.790278781240271"><ele>30.5</ele><time>2026-04-08T13:45:15Z</time></trkpt><trkpt lat="45.190973866741906" lon="10.790248913352492"><ele>30.25</ele><time>2026-04-08T13:45:16Z</time></trkpt><trkpt lat="45.19085506685367" lon="10.790221977502998"><ele>30.0</ele><time>2026-04-08T13:45:17Z</time></trkpt><trkpt lat="45.19073800392611" lon="10.7901932909396"><ele>30.0</ele><time>2026-04-08T13:45:18Z</time></trkpt><trkpt lat="45.19063190945497" lon="10.790170037424316"><ele>30.0</ele><time>2026-04-08T13:45:19Z</time></trkpt><trkpt lat="45.19053900149792" lon="10.79014959407461"><ele>30.0</ele><time>2026-04-08T13:45:20Z</time></trkpt><trkpt lat="45.19046243358928" lon="10.79013291871277"><ele>30.0</ele><time>2026-04-08T13:45:21Z</time></trkpt><trkpt lat="45.190359140364414" lon="10.790113156429419"><ele>30.0</ele><time>2026-04-08T13:45:23Z</time></trkpt><trkpt lat="45.19027284007698" lon="10.79009678496286"><ele>30.0</ele><time>2026-04-08T13:45:25Z</time></trkpt><trkpt lat="45.190185890524404" lon="10.790077556353513"><ele>30.0</ele><time>2026-04-08T13:45:27Z</time></trkpt><trkpt lat="45.19011934908672" lon="10.790064028363082"><ele>30.0</ele><time>2026-04-08T13:45:29Z</time></trkpt><trkpt lat="45.19004117909606" lon="10.790044658187448"><ele>30.0</ele><time>2026-04-08T13:45:31Z</time></trkpt><trkpt lat="45.18992945529085" lon="10.790013695530297"><ele>30.0</ele><time>2026-04-08T13:45:33Z</time></trkpt><trkpt lat="45.189855524905084" lon="10.789992023971982"><ele>30.0</ele><time>2026-04-08T13:45:34Z</time></trkpt><trkpt lat="45.1897774170015" lon="10.78997012181728"><ele>30.0</ele><time>2026-04-08T13:45:35Z</time></trkpt><trkpt lat="45.189700602327044" lon="10.789946122417586"><ele>30.0</ele><time>2026-04-08T13:45:36Z</time></trkpt><trkpt lat="45.18962715249126" lon="10.789923902261213"><ele>30.0</ele><time>2026-04-08T13:45:37Z</time></trkpt><trkpt lat="45.18955821717063" lon="10.78990915193645"><ele>30.0</ele><time>2026-04-08T13:45:38Z</time></trkpt><trkpt lat="45.18944695301628" lon="10.789891669329714"><ele>30.0</ele><time>2026-04-08T13:45:40Z</time></trkpt><trkpt lat="45.189349818677236" lon="10.789879662766449"><ele>30.0</ele><time>2026-04-08T13:45:42Z</time></trkpt><trkpt lat="45.18924607555497" lon="10.789863948923449"><ele>30.0</ele><time>2026-04-08T13:45:44Z</time></trkpt><trkpt lat="45.18917041085569" lon="10.789842275050354"><ele>30.0</ele><time>2026-04-08T13:45:45Z</time></trkpt><trkpt lat="45.189081648928294" lon="10.78981816071163"><ele>30.0</ele><time>2026-04-08T13:45:46Z</time></trkpt><trkpt lat="45.18898176969709" lon="10.789791267602405"><ele>30.0</ele><time>2026-04-08T13:45:47Z</time></trkpt><trkpt lat="45.18887212639853" lon="10.789762519440208"><ele>30.0</ele><time>2026-04-08T13:45:48Z</time></trkpt><trkpt lat="45.188759425464745" lon="10.789733743009796"><ele>29.8</ele><time>2026-04-08T13:45:49Z</time></trkpt><trkpt lat="45.188644991740595" lon="10.789705673311866"><ele>29.6</ele><time>2026-04-08T13:45:50Z</time></trkpt><trkpt lat="45.18853239774911" lon="10.78967784984729"><ele>29.4</ele><time>2026-04-08T13:45:51Z</time></trkpt><trkpt lat="45.188424041587496" lon="10.789650455180892"><ele>29.2</ele><time>2026-04-08T13:45:52Z</time></trkpt><trkpt lat="45.18832133624532" lon="10.789625454870812"><ele>29.0</ele><time>2026-04-08T13:45:53Z</time></trkpt><trkpt lat="45.18822469812172" lon="10.789605115014254"><ele>28.6</ele><time>2026-04-08T13:45:54Z</time></trkpt><trkpt lat="45.18812946813979" lon="10.78958647087875"><ele>28.2</ele><time>2026-04-08T13:45:55Z</time></trkpt><trkpt lat="45.18803853457749" lon="10.78956820818727"><ele>27.800000000000004</ele><time>2026-04-08T13:45:56Z</time></trkpt><trkpt lat="45.18795003933792" lon="10.789550020402302"><ele>27.400000000000002</ele><time>2026-04-08T13:45:57Z</time></trkpt><trkpt lat="45.18786356221523" lon="10.78953074677097"><ele>27.0</ele><time>2026-04-08T13:45:58Z</time></trkpt><trkpt lat="45.187773527385716" lon="10.789509778018997"><ele>27.0</ele><time>2026-04-08T13:45:59Z</time></trkpt><trkpt lat="45.18767968538857" lon="10.789486410797341"><ele>27.000000000000004</ele><time>2026-04-08T13:46:00Z</time></trkpt><trkpt lat="45.18758519044229" lon="10.789465210626187"><ele>27.000000000000004</ele><time>2026-04-08T13:46:01Z</time></trkpt><trkpt lat="45.18748934529287" lon="10.789444015871915"><ele>27.0</ele><time>2026-04-08T13:46:02Z</time></trkpt><trkpt lat="45.18739106607965" lon="10.789421177454575"><ele>27.0</ele><time>2026-04-08T13:46:03Z</time></trkpt><trkpt lat="45.18729461477743" lon="10.789398170643892"><ele>27.400000000000002</ele><time>2026-04-08T13:46:04Z</time></trkpt><trkpt lat="45.18719626091335" lon="10.789373754856241"><ele>27.800000000000004</ele><time>2026-04-08T13:46:05Z</time></trkpt><trkpt lat="45.18709567632506" lon="10.789349437589657"><ele>28.2</ele><time>2026-04-08T13:46:06Z</time></trkpt><trkpt lat="45.18699900647739" lon="10.78932630239242"><ele>28.6</ele><time>2026-04-08T13:46:07Z</time></trkpt><trkpt lat="45.18690485752597" lon="10.78930428413047"><ele>29.0</ele><time>2026-04-08T13:46:08Z</time></trkpt><trkpt lat="45.18681160425654" lon="10.789283582937466"><ele>29.0</ele><time>2026-04-08T13:46:09Z</time></trkpt><trkpt lat="45.18671581569839" lon="10.789261844196423"><ele>29.0</ele><time>2026-04-08T13:46:10Z</time></trkpt><trkpt lat="45.18661344317391" lon="10.789238395536639"><ele>29.0</ele><time>2026-04-08T13:46:11Z</time></trkpt><trkpt lat="45.186510336154406" lon="10.789215231092895"><ele>29.0</ele><time>2026-04-08T13:46:12Z</time></trkpt><trkpt lat="45.18641187030175" lon="10.789192315635038"><ele>29.0</ele><time>2026-04-08T13:46:13Z</time></trkpt><trkpt lat="45.186315764034006" lon="10.789169725984719"><ele>28.999999999999996</ele><time>2026-04-08T13:46:14Z</time></trkpt><trkpt lat="45.186223628287856" lon="10.789148494541857"><ele>29.0</ele><time>2026-04-08T13:46:15Z</time></trkpt><trkpt lat="45.186134648458484" lon="10.789128332587515"><ele>29.0</ele><time>2026-04-08T13:46:16Z</time></trkpt><trkpt lat="45.18604885305338" lon="10.789107672418627"><ele>29.0</ele><time>2026-04-08T13:46:17Z</time></trkpt><trkpt lat="45.185966241603786" lon="10.789088974174478"><ele>28.999999999999996</ele><time>2026-04-08T13:46:18Z</time></trkpt><trkpt lat="45.185888038949365" lon="10.78907299269944"><ele>29.0</ele><time>2026-04-08T13:46:19Z</time></trkpt><trkpt lat="45.185814307839806" lon="10.789058885092894"><ele>29.000000000000004</ele><time>2026-04-08T13:46:20Z</time></trkpt><trkpt lat="45.185742289184695" lon="10.78904606718935"><ele>29.0</ele><time>2026-04-08T13:46:21Z</time></trkpt><trkpt lat="45.18567031130563" lon="10.789031650305738"><ele>29.000000000000004</ele><time>2026-04-08T13:46:22Z</time></trkpt><trkpt lat="45.18559492001932" lon="10.789014586211081"><ele>29.000000000000004</ele><time>2026-04-08T13:46:23Z</time></trkpt><trkpt lat="45.18552170481059" lon="10.788995653730602"><ele>29.0</ele><time>2026-04-08T13:46:24Z</time></trkpt><trkpt lat="45.18545199494901" lon="10.788977258340658"><ele>29.000000000000004</ele><time>2026-04-08T13:46:25Z</time></trkpt><trkpt lat="45.18538726684627" lon="10.788957887791216"><ele>29.000000000000004</ele><time>2026-04-08T13:46:26Z</time></trkpt><trkpt lat="45.18528662593389" lon="10.788919817694964"><ele>28.799999999999997</ele><time>2026-04-08T13:46:28Z</time></trkpt><trkpt lat="45.185215033977734" lon="10.78888572624024"><ele>28.599999999999998</ele><time>2026-04-08T13:46:32Z</time></trkpt><trkpt lat="45.18513709696552" lon="10.78884908679365"><ele>28.4</ele><time>2026-04-08T13:46:34Z</time></trkpt><trkpt lat="45.18501726381994" lon="10.788805791498271"><ele>28.2</ele><time>2026-04-08T13:46:36Z</time></trkpt><trkpt lat="45.18492442870893" lon="10.788804104458952"><ele>28.0</ele><time>2026-04-08T13:46:37Z</time></trkpt><trkpt lat="45.184811122313526" lon="10.788799620569009"><ele>27.75</ele><time>2026-04-08T13:46:38Z</time></trkpt><trkpt lat="45.18468096661215" lon="10.7887836571213"><ele>27.5</ele><time>2026-04-08T13:46:39Z</time></trkpt><trkpt lat="45.18454320229114" lon="10.788752685531314"><ele>27.25</ele><time>2026-04-08T13:46:40Z</time></trkpt><trkpt lat="45.18440210243954" lon="10.788718182123354"><ele>27.0</ele><time>2026-04-08T13:46:41Z</time></trkpt><trkpt lat="45.184265991935035" lon="10.788686120196104"><ele>27.0</ele><time>2026-04-08T13:46:42Z</time></trkpt><trkpt lat="45.18412922084304" lon="10.788653942267318"><ele>27.0</ele><time>2026-04-08T13:46:43Z</time></trkpt><trkpt lat="45.18398646175399" lon="10.788621364442012"><ele>27.0</ele><time>2026-04-08T13:46:44Z</time></trkpt><trkpt lat="45.18383929786995" lon="10.788588276037647"><ele>27.0</ele><time>2026-04-08T13:46:45Z</time></trkpt><trkpt lat="45.18369306590347" lon="10.78855528163929"><ele>27.0</ele><time>2026-04-08T13:46:46Z</time></trkpt><trkpt lat="45.183549650256964" lon="10.788523094158498"><ele>27.0</ele><time>2026-04-08T13:46:47Z</time></trkpt><trkpt lat="45.18340766760997" lon="10.788489067310373"><ele>27.0</ele><time>2026-04-08T13:46:48Z</time></trkpt><trkpt lat="45.18326411470895" lon="10.78845675347274"><ele>27.0</ele><time>2026-04-08T13:46:49Z</time></trkpt><trkpt lat="45.18311614614585" lon="10.788421699662406"><ele>26.75</ele><time>2026-04-08T13:46:50Z</time></trkpt><trkpt lat="45.182968838002274" lon="10.788388708662671"><ele>26.5</ele><time>2026-04-08T13:46:51Z</time></trkpt><trkpt lat="45.1828260310807" lon="10.788356708382135"><ele>26.25</ele><time>2026-04-08T13:46:52Z</time></trkpt><trkpt lat="45.18268881600117" lon="10.788326803383645"><ele>26.0</ele><time>2026-04-08T13:46:53Z</time></trkpt><trkpt lat="45.18255810538654" lon="10.78829795560277"><ele>26.0</ele><time>2026-04-08T13:46:54Z</time></trkpt><trkpt lat="45.18243778327964" lon="10.788270454798518"><ele>26.0</ele><time>2026-04-08T13:46:55Z</time></trkpt><trkpt lat="45.1823284749376" lon="10.788243978833828"><ele>26.0</ele><time>2026-04-08T13:46:56Z</time></trkpt><trkpt lat="45.1822199426629" lon="10.788217301164115"><ele>26.0</ele><time>2026-04-08T13:46:57Z</time></trkpt><trkpt lat="45.18211235355458" lon="10.788191177987489"><ele>26.4</ele><time>2026-04-08T13:46:58Z</time></trkpt><trkpt lat="45.18200316079761" lon="10.78816461225627"><ele>26.8</ele><time>2026-04-08T13:46:59Z</time></trkpt><trkpt lat="45.1818942435239" lon="10.788139847952666"><ele>27.199999999999996</ele><time>2026-04-08T13:47:00Z</time></trkpt><trkpt lat="45.18178607777201" lon="10.788116181136663"><ele>27.599999999999998</ele><time>2026-04-08T13:47:01Z</time></trkpt><trkpt lat="45.181676867269985" lon="10.78809317305166"><ele>28.0</ele><time>2026-04-08T13:47:02Z</time></trkpt><trkpt lat="45.18156548548677" lon="10.788072050564713"><ele>28.2</ele><time>2026-04-08T13:47:03Z</time></trkpt><trkpt lat="45.18145765405147" lon="10.788050088483343"><ele>28.4</ele><time>2026-04-08T13:47:04Z</time></trkpt><trkpt lat="45.181354740910876" lon="10.788029544565008"><ele>28.599999999999998</ele><time>2026-04-08T13:47:05Z</time></trkpt><trkpt lat="45.181256497034184" lon="10.78800946801871"><ele>28.799999999999997</ele><time>2026-04-08T13:47:06Z</time></trkpt><trkpt lat="45.181163766884026" lon="10.78799043318049"><ele>29.0</ele><time>2026-04-08T13:47:07Z</time></trkpt><trkpt lat="45.181074168617805" lon="10.787971447057839"><ele>28.999999999999996</ele><time>2026-04-08T13:47:08Z</time></trkpt><trkpt lat="45.18099136845261" lon="10.787953858462906"><ele>29.0</ele><time>2026-04-08T13:47:09Z</time></trkpt><trkpt lat="45.18091200595474" lon="10.787936479144678"><ele>29.0</ele><time>2026-04-08T13:47:10Z</time></trkpt><trkpt lat="45.180833685102435" lon="10.787919194112312"><ele>29.0</ele><time>2026-04-08T13:47:11Z</time></trkpt><trkpt lat="45.18075565376395" lon="10.787904454922115"><ele>28.999999999999996</ele><time>2026-04-08T13:47:12Z</time></trkpt><trkpt lat="45.18068718765269" lon="10.787895180634491"><ele>29.0</ele><time>2026-04-08T13:47:13Z</time></trkpt><trkpt lat="45.180621268644494" lon="10.787890904647673"><ele>28.85714285714286</ele><time>2026-04-08T13:47:14Z</time></trkpt><trkpt lat="45.18055220993128" lon="10.787883292596662"><ele>28.714285714285715</ele><time>2026-04-08T13:47:15Z</time></trkpt><trkpt lat="45.180480788001766" lon="10.787867644841855"><ele>28.571428571428573</ele><time>2026-04-08T13:47:16Z</time></trkpt><trkpt lat="45.18041351318589" lon="10.787848710701105"><ele>28.42857142857143</ele><time>2026-04-08T13:47:17Z</time></trkpt><trkpt lat="45.18033846377738" lon="10.787829044992389"><ele>28.285714285714285</ele><time>2026-04-08T13:47:18Z</time></trkpt><trkpt lat="45.18026608493053" lon="10.787805758251022"><ele>28.142857142857142</ele><time>2026-04-08T13:47:19Z</time></trkpt><trkpt lat="45.18019537222167" lon="10.787779094163517"><ele>28.0</ele><time>2026-04-08T13:47:20Z</time></trkpt><trkpt lat="45.180123931594004" lon="10.787754730434974"><ele>28.000000000000004</ele><time>2026-04-08T13:47:21Z</time></trkpt><trkpt lat="45.180045842182054" lon="10.787729866529164"><ele>28.0</ele><time>2026-04-08T13:47:22Z</time></trkpt><trkpt lat="45.179963347999816" lon="10.787706286790643"><ele>28.0</ele><time>2026-04-08T13:47:23Z</time></trkpt><trkpt lat="45.17988081230756" lon="10.787684999684254"><ele>28.0</ele><time>2026-04-08T13:47:24Z</time></trkpt><trkpt lat="45.179800675000585" lon="10.787665756572249"><ele>28.000000000000004</ele><time>2026-04-08T13:47:25Z</time></trkpt><trkpt lat="45.17971463493324" lon="10.78764379416261"><ele>28.0</ele><time>2026-04-08T13:47:26Z</time></trkpt><trkpt lat="45.1796244874288" lon="10.787622007530336"><ele>27.0</ele><time>2026-04-08T13:47:27Z</time></trkpt><trkpt lat="45.17953150989956" lon="10.787599376806927"><ele>25.999999999999996</ele><time>2026-04-08T13:47:28Z</time></trkpt><trkpt lat="45.17943553356567" lon="10.787575894631885"><ele>25.0</ele><time>2026-04-08T13:47:29Z</time></trkpt><trkpt lat="45.17933534163172" lon="10.78755073334955"><ele>24.0</ele><time>2026-04-08T13:47:30Z</time></trkpt><trkpt lat="45.179233372597025" lon="10.787521702770757"><ele>23.0</ele><time>2026-04-08T13:47:31Z</time></trkpt><trkpt lat="45.179130095028164" lon="10.787492028307714"><ele>23.0</ele><time>2026-04-08T13:47:32Z</time></trkpt><trkpt lat="45.17902509977721" lon="10.787463679948987"><ele>23.0</ele><time>2026-04-08T13:47:33Z</time></trkpt><trkpt lat="45.17891680560676" lon="10.78743393767009"><ele>23.0</ele><time>2026-04-08T13:47:34Z</time></trkpt><trkpt lat="45.178808768579074" lon="10.787406332852354"><ele>23.0</ele><time>2026-04-08T13:47:35Z</time></trkpt><trkpt lat="45.178701334184055" lon="10.787379070898979"><ele>23.0</ele><time>2026-04-08T13:47:36Z</time></trkpt><trkpt lat="45.17859250894395" lon="10.787354342364885"><ele>23.0</ele><time>2026-04-08T13:47:37Z</time></trkpt><trkpt lat="45.178485085746104" lon="10.78733105032152"><ele>23.0</ele><time>2026-04-08T13:47:38Z</time></trkpt><trkpt lat="45.17837591657182" lon="10.787307528562202"><ele>23.0</ele><time>2026-04-08T13:47:39Z</time></trkpt><trkpt lat="45.17827044018012" lon="10.787284805260608"><ele>23.0</ele><time>2026-04-08T13:47:40Z</time></trkpt><trkpt lat="45.178169251689184" lon="10.78726331285958"><ele>23.0</ele><time>2026-04-08T13:47:41Z</time></trkpt><trkpt lat="45.17807369880184" lon="10.78724250365387"><ele>22.5</ele><time>2026-04-08T13:47:42Z</time></trkpt><trkpt lat="45.17798045244282" lon="10.787224343810411"><ele>22.0</ele><time>2026-04-08T13:47:43Z</time></trkpt><trkpt lat="45.17788989382722" lon="10.787208533300491"><ele>21.5</ele><time>2026-04-08T13:47:44Z</time></trkpt><trkpt lat="45.17780597472117" lon="10.787197808554426"><ele>21.0</ele><time>2026-04-08T13:47:45Z</time></trkpt><trkpt lat="45.177730667231245" lon="10.78719171504743"><ele>20.5</ele><time>2026-04-08T13:47:46Z</time></trkpt><trkpt lat="45.17765763143341" lon="10.787189681261484"><ele>20.0</ele><time>2026-04-08T13:47:47Z</time></trkpt><trkpt lat="45.177583729216664" lon="10.787189477583722"><ele>20.0</ele><time>2026-04-08T13:47:48Z</time></trkpt><trkpt lat="45.1775111522658" lon="10.787190879525063"><ele>20.0</ele><time>2026-04-08T13:47:49Z</time></trkpt><trkpt lat="45.1774426751669" lon="10.787192126370554"><ele>20.0</ele><time>2026-04-08T13:47:50Z</time></trkpt><trkpt lat="45.1773777014561" lon="10.787195346035553"><ele>20.0</ele><time>2026-04-08T13:47:51Z</time></trkpt><trkpt lat="45.17731466245238" lon="10.787199835153848"><ele>20.0</ele><time>2026-04-08T13:47:52Z</time></trkpt><trkpt lat="45.17720798777937" lon="10.787204273011827"><ele>20.0</ele><time>2026-04-08T13:47:54Z</time></trkpt><trkpt lat="45.177130712481755" lon="10.78720737499815"><ele>20.142857142857142</ele><time>2026-04-08T13:47:57Z</time></trkpt><trkpt lat="45.1770613423745" lon="10.78722127933483"><ele>20.285714285714285</ele><time>2026-04-08T13:48:00Z</time></trkpt><trkpt lat="45.17699441932515" lon="10.787241253924009"><ele>20.42857142857143</ele><time>2026-04-08T13:48:07Z</time></trkpt><trkpt lat="45.17693121243916" lon="10.787256034301253"><ele>20.57142857142857</ele><time>2026-04-08T13:48:09Z</time></trkpt><trkpt lat="45.17689659817255" lon="10.7871248829814"><ele>20.714285714285715</ele><time>2026-04-08T13:48:10Z</time></trkpt><trkpt lat="45.176832556498866" lon="10.78712445583196"><ele>20.857142857142858</ele><time>2026-04-08T13:48:14Z</time></trkpt><trkpt lat="45.17676244592547" lon="10.787123988205922"><ele>21.0</ele><time>2026-04-08T13:48:23Z</time></trkpt><trkpt lat="45.17669580313745" lon="10.78723554484206"><ele>21.0</ele><time>2026-04-08T13:48:26Z</time></trkpt><trkpt lat="45.17662432188845" lon="10.787273638127019"><ele>21.0</ele><time>2026-04-08T13:48:29Z</time></trkpt><trkpt lat="45.1765608706114" lon="10.787309459492176"><ele>21.0</ele><time>2026-04-08T13:48:32Z</time></trkpt><trkpt lat="45.17645552782374" lon="10.787330927686893"><ele>21.0</ele><time>2026-04-08T13:48:42Z</time></trkpt><trkpt lat="45.1763737978193" lon="10.787306390593624"><ele>21.0</ele><time>2026-04-08T13:48:45Z</time></trkpt><trkpt lat="45.17630322978955" lon="10.787279149148066"><ele>21.0</ele><time>2026-04-08T13:48:47Z</time></trkpt><trkpt lat="45.17622053282198" lon="10.787244847973154"><ele>21.0</ele><time>2026-04-08T13:48:49Z</time></trkpt><trkpt lat="45.17614895682662" lon="10.787212370267428"><ele>21.0</ele><time>2026-04-08T13:48:51Z</time></trkpt><trkpt lat="45.1760892248873" lon="10.787161369982579"><ele>21.0</ele><time>2026-04-08T13:48:53Z</time></trkpt><trkpt lat="45.176023098264494" lon="10.78704900678371"><ele>21.0</ele><time>2026-04-08T13:48:55Z</time></trkpt><trkpt lat="45.175961265765295" lon="10.78695760168947"><ele>21.0</ele><time>2026-04-08T13:48:57Z</time></trkpt><trkpt lat="45.17587203168804" lon="10.78690632140354"><ele>21.0</ele><time>2026-04-08T13:48:59Z</time></trkpt><trkpt lat="45.17575424189976" lon="10.786927774875561"><ele>21.0</ele><time>2026-04-08T13:49:01Z</time></trkpt><trkpt lat="45.175681637347004" lon="10.786998576769546"><ele>21.0</ele><time>2026-04-08T13:49:03Z</time></trkpt><trkpt lat="45.175627606821756" lon="10.787049295206199"><ele>21.0</ele><time>2026-04-08T13:49:05Z</time></trkpt><trkpt lat="45.17554924088165" lon="10.78708900285399"><ele>21.0</ele><time>2026-04-08T13:49:08Z</time></trkpt><trkpt lat="45.17546594014828" lon="10.787090854513485"><ele>21.0</ele><time>2026-04-08T13:49:11Z</time></trkpt><trkpt lat="45.1753776814395" lon="10.78709197364535"><ele>21.0</ele><time>2026-04-08T13:49:14Z</time></trkpt><trkpt lat="45.175287755019795" lon="10.78709292169126"><ele>21.0</ele><time>2026-04-08T13:49:17Z</time></trkpt><trkpt lat="45.17519311324497" lon="10.787093697087926"><ele>21.0</ele><time>2026-04-08T13:49:20Z</time></trkpt><trkpt lat="45.17512494321126" lon="10.78709466469008"><ele>21.0</ele><time>2026-04-08T13:49:22Z</time></trkpt><trkpt lat="45.17505978373401" lon="10.787093984959588"><ele>21.0</ele><time>2026-04-08T13:49:24Z</time></trkpt><trkpt lat="45.17496883284076" lon="10.7870899904409"><ele>21.0</ele><time>2026-04-08T13:49:27Z</time></trkpt><trkpt lat="45.17488115857416" lon="10.787087094652835"><ele>21.0</ele><time>2026-04-08T13:49:30Z</time></trkpt><trkpt lat="45.174801418609924" lon="10.787083796625925"><ele>21.200000000000003</ele><time>2026-04-08T13:49:32Z</time></trkpt><trkpt lat="45.17471281201525" lon="10.787080110662338"><ele>21.400000000000002</ele><time>2026-04-08T13:49:34Z</time></trkpt><trkpt lat="45.17460360581201" lon="10.787078539628054"><ele>21.6</ele><time>2026-04-08T13:49:36Z</time></trkpt><trkpt lat="45.17451194115341" lon="10.787079233609884"><ele>21.8</ele><time>2026-04-08T13:49:38Z</time></trkpt><trkpt lat="45.174423603046414" lon="10.787082090174014"><ele>22.0</ele><time>2026-04-08T13:49:40Z</time></trkpt><trkpt lat="45.17431355833448" lon="10.787081205296694"><ele>22.0</ele><time>2026-04-08T13:49:42Z</time></trkpt><trkpt lat="45.17420328284772" lon="10.787077966401156"><ele>22.0</ele><time>2026-04-08T13:49:44Z</time></trkpt><trkpt lat="45.1740813926025" lon="10.787073931018995"><ele>22.0</ele><time>2026-04-08T13:49:46Z</time></trkpt><trkpt lat="45.17395074559609" lon="10.787069264786856"><ele>22.0</ele><time>2026-04-08T13:49:48Z</time></trkpt><trkpt lat="45.173878874702964" lon="10.787066644766464"><ele>22.0</ele><time>2026-04-08T13:49:49Z</time></trkpt><trkpt lat="45.173805200977576" lon="10.787062962566308"><ele>21.833333333333332</ele><time>2026-04-08T13:49:50Z</time></trkpt><trkpt lat="45.17372923145299" lon="10.787059917721114"><ele>21.666666666666664</ele><time>2026-04-08T13:49:51Z</time></trkpt><trkpt lat="45.173649334570236" lon="10.787056861172308"><ele>21.5</ele><time>2026-04-08T13:49:52Z</time></trkpt><trkpt lat="45.17357227538982" lon="10.787053901457735"><ele>21.333333333333332</ele><time>2026-04-08T13:49:53Z</time></trkpt><trkpt lat="45.17349669516942" lon="10.787051155353279"><ele>21.166666666666668</ele><time>2026-04-08T13:49:54Z</time></trkpt><trkpt lat="45.17342255489276" lon="10.787050767386617"><ele>21.0</ele><time>2026-04-08T13:49:55Z</time></trkpt><trkpt lat="45.173346281624504" lon="10.787050438869297"><ele>21.0</ele><time>2026-04-08T13:49:56Z</time></trkpt><trkpt lat="45.1732698622942" lon="10.787050957094781"><ele>21.0</ele><time>2026-04-08T13:49:57Z</time></trkpt><trkpt lat="45.1731940253681" lon="10.787048221530123"><ele>21.0</ele><time>2026-04-08T13:49:58Z</time></trkpt><trkpt lat="45.17312138629967" lon="10.787041713375043"><ele>21.0</ele><time>2026-04-08T13:49:59Z</time></trkpt><trkpt lat="45.173046072552175" lon="10.787036265446112"><ele>21.0</ele><time>2026-04-08T13:50:00Z</time></trkpt><trkpt lat="45.17297288556507" lon="10.787028633060936"><ele>21.0</ele><time>2026-04-08T13:50:01Z</time></trkpt><trkpt lat="45.172898503401605" lon="10.787020497004745"><ele>21.0</ele><time>2026-04-08T13:50:02Z</time></trkpt><trkpt lat="45.17282561934121" lon="10.78700990129615"><ele>21.0</ele><time>2026-04-08T13:50:03Z</time></trkpt><trkpt lat="45.172752784055795" lon="10.786994459650305"><ele>21.0</ele><time>2026-04-08T13:50:04Z</time></trkpt><trkpt lat="45.17268430954735" lon="10.786974254624466"><ele>21.0</ele><time>2026-04-08T13:50:05Z</time></trkpt><trkpt lat="45.17261996052395" lon="10.786951307958367"><ele>21.0</ele><time>2026-04-08T13:50:06Z</time></trkpt><trkpt lat="45.17255856165189" lon="10.786925437725953"><ele>21.0</ele><time>2026-04-08T13:50:07Z</time></trkpt><trkpt lat="45.1724955089815" lon="10.78689492673786"><ele>21.0</ele><time>2026-04-08T13:50:08Z</time></trkpt><trkpt lat="45.172425273329736" lon="10.786861777554702"><ele>21.0</ele><time>2026-04-08T13:50:09Z</time></trkpt><trkpt lat="45.17235537833827" lon="10.786829842267451"><ele>21.0</ele><time>2026-04-08T13:50:10Z</time></trkpt><trkpt lat="45.17228497816467" lon="10.786798827112126"><ele>21.0</ele><time>2026-04-08T13:50:11Z</time></trkpt><trkpt lat="45.172210807924046" lon="10.786772348255743"><ele>21.0</ele><time>2026-04-08T13:50:12Z</time></trkpt><trkpt lat="45.17213473833964" lon="10.786751366890003"><ele>21.0</ele><time>2026-04-08T13:50:13Z</time></trkpt><trkpt lat="45.17206129359274" lon="10.78673843087807"><ele>21.0</ele><time>2026-04-08T13:50:14Z</time></trkpt><trkpt lat="45.171989041869736" lon="10.786735346786081"><ele>21.0</ele><time>2026-04-08T13:50:15Z</time></trkpt><trkpt lat="45.17191481061897" lon="10.786739715391105"><ele>21.0</ele><time>2026-04-08T13:50:16Z</time></trkpt><trkpt lat="45.17184591161202" lon="10.786750032361258"><ele>21.0</ele><time>2026-04-08T13:50:17Z</time></trkpt><trkpt lat="45.17177679940275" lon="10.786762074603594"><ele>21.0</ele><time>2026-04-08T13:50:18Z</time></trkpt><trkpt lat="45.17170612986598" lon="10.786773077874779"><ele>21.0</ele><time>2026-04-08T13:50:19Z</time></trkpt><trkpt lat="45.17163245665961" lon="10.786786707386225"><ele>21.0</ele><time>2026-04-08T13:50:20Z</time></trkpt><trkpt lat="45.17155762237439" lon="10.78680130632683"><ele>21.0</ele><time>2026-04-08T13:50:21Z</time></trkpt><trkpt lat="45.17149151879771" lon="10.786816487732098"><ele>21.0</ele><time>2026-04-08T13:50:22Z</time></trkpt><trkpt lat="45.1713988106204" lon="10.78684286109602"><ele>20.5</ele><time>2026-04-08T13:50:24Z</time></trkpt><trkpt lat="45.17132038580051" lon="10.786863400120408"><ele>20.0</ele><time>2026-04-08T13:50:26Z</time></trkpt><trkpt lat="45.17124659441117" lon="10.786879917327306"><ele>19.5</ele><time>2026-04-08T13:50:30Z</time></trkpt><trkpt lat="45.17115650617987" lon="10.786904704808933"><ele>19.0</ele><time>2026-04-08T13:50:32Z</time></trkpt><trkpt lat="45.171039895227985" lon="10.786932043017888"><ele>18.5</ele><time>2026-04-08T13:50:34Z</time></trkpt><trkpt lat="45.1709756159841" lon="10.78694964169158"><ele>18.0</ele><time>2026-04-08T13:50:35Z</time></trkpt><trkpt lat="45.17090566740008" lon="10.786967723866796"><ele>18.0</ele><time>2026-04-08T13:50:36Z</time></trkpt><trkpt lat="45.17083836258975" lon="10.786986818091426"><ele>18.0</ele><time>2026-04-08T13:50:37Z</time></trkpt><trkpt lat="45.17076301908565" lon="10.787007345667032"><ele>18.0</ele><time>2026-04-08T13:50:38Z</time></trkpt><trkpt lat="45.1706781467397" lon="10.787033122460592"><ele>18.0</ele><time>2026-04-08T13:50:39Z</time></trkpt><trkpt lat="45.17058609411576" lon="10.78706044324834"><ele>18.0</ele><time>2026-04-08T13:50:40Z</time></trkpt><trkpt lat="45.17048470148925" lon="10.787087115818109"><ele>18.0</ele><time>2026-04-08T13:50:41Z</time></trkpt><trkpt lat="45.17037626399623" lon="10.787115824433782"><ele>17.5</ele><time>2026-04-08T13:50:42Z</time></trkpt><trkpt lat="45.17025372749414" lon="10.787150527868121"><ele>17.0</ele><time>2026-04-08T13:50:43Z</time></trkpt><trkpt lat="45.17012332515884" lon="10.787183525581883"><ele>16.5</ele><time>2026-04-08T13:50:44Z</time></trkpt><trkpt lat="45.16999798126771" lon="10.78721513591834"><ele>16.0</ele><time>2026-04-08T13:50:45Z</time></trkpt><trkpt lat="45.16987214125411" lon="10.787249150632276"><ele>15.75</ele><time>2026-04-08T13:50:46Z</time></trkpt><trkpt lat="45.169738595542604" lon="10.787290168581775"><ele>15.5</ele><time>2026-04-08T13:50:47Z</time></trkpt><trkpt lat="45.169598675080465" lon="10.787333333272027"><ele>15.25</ele><time>2026-04-08T13:50:48Z</time></trkpt><trkpt lat="45.16944896394268" lon="10.787378918190457"><ele>15.0</ele><time>2026-04-08T13:50:49Z</time></trkpt><trkpt lat="45.16928587427736" lon="10.787427007976397"><ele>15.0</ele><time>2026-04-08T13:50:50Z</time></trkpt><trkpt lat="45.1691178596754" lon="10.787471050578223"><ele>15.0</ele><time>2026-04-08T13:50:51Z</time></trkpt><trkpt lat="45.16893836114459" lon="10.787516652554107"><ele>15.0</ele><time>2026-04-08T13:50:52Z</time></trkpt><trkpt lat="45.168753578442335" lon="10.787562802833591"><ele>15.0</ele><time>2026-04-08T13:50:53Z</time></trkpt><trkpt lat="45.16857545347427" lon="10.787611438536368"><ele>15.0</ele><time>2026-04-08T13:50:54Z</time></trkpt><trkpt lat="45.16840025203292" lon="10.787665339079679"><ele>15.0</ele><time>2026-04-08T13:50:55Z</time></trkpt><trkpt lat="45.16822260005692" lon="10.787718016536568"><ele>15.0</ele><time>2026-04-08T13:50:56Z</time></trkpt><trkpt lat="45.16804257857635" lon="10.787774569390962"><ele>15.0</ele><time>2026-04-08T13:50:57Z</time></trkpt><trkpt lat="45.167860815250876" lon="10.78783398884827"><ele>15.0</ele><time>2026-04-08T13:50:58Z</time></trkpt><trkpt lat="45.16767646533067" lon="10.787895639911875"><ele>15.0</ele><time>2026-04-08T13:50:59Z</time></trkpt><trkpt lat="45.16749362461428" lon="10.787953818590347"><ele>15.0</ele><time>2026-04-08T13:51:00Z</time></trkpt><trkpt lat="45.167315110991204" lon="10.788007739212274"><ele>15.0</ele><time>2026-04-08T13:51:01Z</time></trkpt><trkpt lat="45.16714061008951" lon="10.788058211952679"><ele>15.0</ele><time>2026-04-08T13:51:02Z</time></trkpt><trkpt lat="45.16696597769685" lon="10.788108858765328"><ele>15.0</ele><time>2026-04-08T13:51:03Z</time></trkpt><trkpt lat="45.166789278155626" lon="10.788162236505185"><ele>15.0</ele><time>2026-04-08T13:51:04Z</time></trkpt><trkpt lat="45.16661492831942" lon="10.788214065423924"><ele>15.0</ele><time>2026-04-08T13:51:05Z</time></trkpt><trkpt lat="45.166443180717735" lon="10.788263498940331"><ele>15.0</ele><time>2026-04-08T13:51:06Z</time></trkpt><trkpt lat="45.16627501629593" lon="10.78831376870367"><ele>15.0</ele><time>2026-04-08T13:51:07Z</time></trkpt><trkpt lat="45.16611088796382" lon="10.788363986893643"><ele>15.0</ele><time>2026-04-08T13:51:08Z</time></trkpt><trkpt lat="45.165951050821754" lon="10.788414376267994"><ele>15.0</ele><time>2026-04-08T13:51:09Z</time></trkpt><trkpt lat="45.16579429159838" lon="10.78846380667697"><ele>15.0</ele><time>2026-04-08T13:51:10Z</time></trkpt><trkpt lat="45.165648425718025" lon="10.78850608605575"><ele>15.2</ele><time>2026-04-08T13:51:11Z</time></trkpt><trkpt lat="45.16551426707475" lon="10.788543160358987"><ele>15.4</ele><time>2026-04-08T13:51:12Z</time></trkpt><trkpt lat="45.1653959998694" lon="10.788573499744174"><ele>15.600000000000001</ele><time>2026-04-08T13:51:13Z</time></trkpt><trkpt lat="45.16529381433489" lon="10.788597861154164"><ele>15.8</ele><time>2026-04-08T13:51:14Z</time></trkpt><trkpt lat="45.16521246294572" lon="10.788610754564063"><ele>16.0</ele><time>2026-04-08T13:51:15Z</time></trkpt><trkpt lat="45.16511589964804" lon="10.788608869545444"><ele>16.0</ele><time>2026-04-08T13:51:17Z</time></trkpt><trkpt lat="45.16500828876001" lon="10.788563223737619"><ele>16.0</ele><time>2026-04-08T13:51:19Z</time></trkpt><trkpt lat="45.16493069651496" lon="10.788536075661284"><ele>16.0</ele><time>2026-04-08T13:51:20Z</time></trkpt><trkpt lat="45.16483695372577" lon="10.788531711239413"><ele>16.0</ele><time>2026-04-08T13:51:21Z</time></trkpt><trkpt lat="45.164734087621646" lon="10.788534778767389"><ele>16.0</ele><time>2026-04-08T13:51:22Z</time></trkpt><trkpt lat="45.16461870539245" lon="10.788537930814813"><ele>17.0</ele><time>2026-04-08T13:51:23Z</time></trkpt><trkpt lat="45.16448871282661" lon="10.7885479762815"><ele>18.0</ele><time>2026-04-08T13:51:24Z</time></trkpt><trkpt lat="45.1643493139466" lon="10.78856583972513"><ele>19.0</ele><time>2026-04-08T13:51:25Z</time></trkpt><trkpt lat="45.164200112832084" lon="10.78858323106766"><ele>20.0</ele><time>2026-04-08T13:51:26Z</time></trkpt><trkpt lat="45.16403749548976" lon="10.788601548326293"><ele>21.0</ele><time>2026-04-08T13:51:27Z</time></trkpt><trkpt lat="45.163864899324366" lon="10.78858645335921"><ele>22.0</ele><time>2026-04-08T13:51:28Z</time></trkpt><trkpt lat="45.16367986269775" lon="10.788584969668413"><ele>23.0</ele><time>2026-04-08T13:51:29Z</time></trkpt><trkpt lat="45.16349312808395" lon="10.788586134467339"><ele>23.0</ele><time>2026-04-08T13:51:30Z</time></trkpt><trkpt lat="45.16331102565568" lon="10.788589419292354"><ele>23.0</ele><time>2026-04-08T13:51:31Z</time></trkpt><trkpt lat="45.16313257608233" lon="10.788592118777746"><ele>23.0</ele><time>2026-04-08T13:51:32Z</time></trkpt><trkpt lat="45.1629569076869" lon="10.788590827839645"><ele>23.0</ele><time>2026-04-08T13:51:33Z</time></trkpt><trkpt lat="45.16278460663719" lon="10.788587294422582"><ele>23.0</ele><time>2026-04-08T13:51:34Z</time></trkpt><trkpt lat="45.162613961495104" lon="10.788604750189007"><ele>23.0</ele><time>2026-04-08T13:51:35Z</time></trkpt><trkpt lat="45.16245033856017" lon="10.788575934317944"><ele>23.0</ele><time>2026-04-08T13:51:36Z</time></trkpt><trkpt lat="45.16229185825152" lon="10.788532208841318"><ele>23.0</ele><time>2026-04-08T13:51:37Z</time></trkpt><trkpt lat="45.16215342356124" lon="10.788484603090211"><ele>23.0</ele><time>2026-04-08T13:51:38Z</time></trkpt><trkpt lat="45.162033443998496" lon="10.788438825388585"><ele>23.0</ele><time>2026-04-08T13:51:39Z</time></trkpt><trkpt lat="45.161930844495984" lon="10.788395612373145"><ele>23.0</ele><time>2026-04-08T13:51:40Z</time></trkpt><trkpt lat="45.16185359873234" lon="10.788358325681338"><ele>23.0</ele><time>2026-04-08T13:51:41Z</time></trkpt><trkpt lat="45.16178444121555" lon="10.78827537898504"><ele>23.0</ele><time>2026-04-08T13:51:43Z</time></trkpt><trkpt lat="45.16172644518422" lon="10.78823687997761"><ele>23.0</ele><time>2026-04-08T13:51:48Z</time></trkpt><trkpt lat="45.16165107808952" lon="10.788186850742871"><ele>23.0</ele><time>2026-04-08T13:52:00Z</time></trkpt><trkpt lat="45.16157848619289" lon="10.788314723069844"><ele>23.0</ele><time>2026-04-08T13:52:01Z</time></trkpt><trkpt lat="45.161530431886796" lon="10.788398616733081"><ele>23.0</ele><time>2026-04-08T13:52:02Z</time></trkpt><trkpt lat="45.16147705022957" lon="10.788497225654284"><ele>23.0</ele><time>2026-04-08T13:52:03Z</time></trkpt><trkpt lat="45.161420641418125" lon="10.788607891529967"><ele>23.0</ele><time>2026-04-08T13:52:04Z</time></trkpt><trkpt lat="45.16136285370664" lon="10.788725242743041"><ele>23.0</ele><time>2026-04-08T13:52:05Z</time></trkpt><trkpt lat="45.161294029918615" lon="10.788827890997611"><ele>23.0</ele><time>2026-04-08T13:52:06Z</time></trkpt><trkpt lat="45.16123523460483" lon="10.78894042226248"><ele>23.0</ele><time>2026-04-08T13:52:07Z</time></trkpt><trkpt lat="45.16118070951047" lon="10.789042540265683"><ele>23.0</ele><time>2026-04-08T13:52:08Z</time></trkpt><trkpt lat="45.16112942532769" lon="10.789142788271873"><ele>23.0</ele><time>2026-04-08T13:52:09Z</time></trkpt><trkpt lat="45.161084750804335" lon="10.789233388190276"><ele>23.0</ele><time>2026-04-08T13:52:10Z</time></trkpt><trkpt lat="45.16102515455024" lon="10.789349331592728"><ele>23.0</ele><time>2026-04-08T13:52:12Z</time></trkpt><trkpt lat="45.16093969683254" lon="10.789354619420482"><ele>23.0</ele><time>2026-04-08T13:52:15Z</time></trkpt><trkpt lat="45.16085670753527" lon="10.789263161557038"><ele>23.0</ele><time>2026-04-08T13:52:17Z</time></trkpt><trkpt lat="45.160760195942686" lon="10.789147432792474"><ele>23.0</ele><time>2026-04-08T13:52:19Z</time></trkpt><trkpt lat="45.16070582175734" lon="10.789091339282841"><ele>23.0</ele><time>2026-04-08T13:52:20Z</time></trkpt><trkpt lat="45.160651162964946" lon="10.78903238883312"><ele>23.0</ele><time>2026-04-08T13:52:21Z</time></trkpt><trkpt lat="45.16059718915238" lon="10.788979315050108"><ele>23.0</ele><time>2026-04-08T13:52:22Z</time></trkpt><trkpt lat="45.16054124906234" lon="10.78892718961134"><ele>23.0</ele><time>2026-04-08T13:52:23Z</time></trkpt><trkpt lat="45.16048443751048" lon="10.788879002574344"><ele>23.5</ele><time>2026-04-08T13:52:24Z</time></trkpt><trkpt lat="45.160421580424256" lon="10.788835196311142"><ele>24.0</ele><time>2026-04-08T13:52:25Z</time></trkpt><trkpt lat="45.16035602604127" lon="10.78878753695604"><ele>24.5</ele><time>2026-04-08T13:52:26Z</time></trkpt><trkpt lat="45.16028831467168" lon="10.78874184709032"><ele>25.0</ele><time>2026-04-08T13:52:27Z</time></trkpt><trkpt lat="45.16022851220348" lon="10.788676951268295"><ele>25.499999999999996</ele><time>2026-04-08T13:52:28Z</time></trkpt><trkpt lat="45.16015643668496" lon="10.788624589838776"><ele>26.0</ele><time>2026-04-08T13:52:29Z</time></trkpt><trkpt lat="45.160090039602714" lon="10.788576051924146"><ele>25.999999999999996</ele><time>2026-04-08T13:52:30Z</time></trkpt><trkpt lat="45.16002154129311" lon="10.788526613337199"><ele>26.0</ele><time>2026-04-08T13:52:31Z</time></trkpt><trkpt lat="45.15995614432788" lon="10.788478688509656"><ele>26.0</ele><time>2026-04-08T13:52:32Z</time></trkpt><trkpt lat="45.15989579017531" lon="10.78843209962449"><ele>26.0</ele><time>2026-04-08T13:52:33Z</time></trkpt><trkpt lat="45.15983871285158" lon="10.788388368786196"><ele>25.999999999999996</ele><time>2026-04-08T13:52:34Z</time></trkpt><trkpt lat="45.15978145422391" lon="10.788348757677195"><ele>26.0</ele><time>2026-04-08T13:52:35Z</time></trkpt><trkpt lat="45.15966800350232" lon="10.788264960706963"><ele>25.666666666666664</ele><time>2026-04-08T13:52:37Z</time></trkpt><trkpt lat="45.159608991315984" lon="10.788212139490769"><ele>25.333333333333332</ele><time>2026-04-08T13:52:38Z</time></trkpt><trkpt lat="45.15955150906685" lon="10.788150138059674"><ele>25.0</ele><time>2026-04-08T13:52:39Z</time></trkpt><trkpt lat="45.159482630039136" lon="10.78809317070693"><ele>24.666666666666664</ele><time>2026-04-08T13:52:40Z</time></trkpt><trkpt lat="45.15942880102" lon="10.787994911933785"><ele>24.333333333333332</ele><time>2026-04-08T13:52:41Z</time></trkpt><trkpt lat="45.15942145051286" lon="10.787853445083737"><ele>24.0</ele><time>2026-04-08T13:52:42Z</time></trkpt><trkpt lat="45.159396805866095" lon="10.787721687129922"><ele>23.6</ele><time>2026-04-08T13:52:43Z</time></trkpt><trkpt lat="45.159369915328845" lon="10.787579903869837"><ele>23.2</ele><time>2026-04-08T13:52:44Z</time></trkpt><trkpt lat="45.15934395747998" lon="10.787438525678308"><ele>22.8</ele><time>2026-04-08T13:52:45Z</time></trkpt><trkpt lat="45.159318459864366" lon="10.787297408580619"><ele>22.400000000000002</ele><time>2026-04-08T13:52:46Z</time></trkpt><trkpt lat="45.15929424791564" lon="10.787163435182809"><ele>22.0</ele><time>2026-04-08T13:52:47Z</time></trkpt><trkpt lat="45.15927197462842" lon="10.78703276823"><ele>22.0</ele><time>2026-04-08T13:52:48Z</time></trkpt><trkpt lat="45.159250301901295" lon="10.786916428628484"><ele>22.0</ele><time>2026-04-08T13:52:49Z</time></trkpt><trkpt lat="45.159228972467986" lon="10.78681527569163"><ele>22.0</ele><time>2026-04-08T13:52:50Z</time></trkpt><trkpt lat="45.15919822940816" lon="10.786651315189099"><ele>22.0</ele><time>2026-04-08T13:52:52Z</time></trkpt><trkpt lat="45.159170647943746" lon="10.786515139181176"><ele>22.0</ele><time>2026-04-08T13:52:54Z</time></trkpt><trkpt lat="45.15914586909511" lon="10.786389553002197"><ele>22.0</ele><time>2026-04-08T13:52:56Z</time></trkpt><trkpt lat="45.15912040935286" lon="10.786261012407117"><ele>22.0</ele><time>2026-04-08T13:52:58Z</time></trkpt><trkpt lat="45.159089165935015" lon="10.786101145286462"><ele>22.0</ele><time>2026-04-08T13:53:00Z</time></trkpt><trkpt lat="45.15905027055017" lon="10.785928303853451"><ele>22.0</ele><time>2026-04-08T13:53:02Z</time></trkpt><trkpt lat="45.15903110952289" lon="10.78584228334604"><ele>22.0</ele><time>2026-04-08T13:53:03Z</time></trkpt><trkpt lat="45.15899611594762" lon="10.78569737754277"><ele>22.5</ele><time>2026-04-08T13:53:05Z</time></trkpt><trkpt lat="45.15896728810341" lon="10.785588215168563"><ele>23.0</ele><time>2026-04-08T13:53:07Z</time></trkpt><trkpt lat="45.15893993020509" lon="10.78548495010039"><ele>23.5</ele><time>2026-04-08T13:53:09Z</time></trkpt><trkpt lat="45.15891078384947" lon="10.785391938991397"><ele>24.0</ele><time>2026-04-08T13:53:12Z</time></trkpt><trkpt lat="45.15882457006283" lon="10.78535680801032"><ele>24.500000000000004</ele><time>2026-04-08T13:53:15Z</time></trkpt><trkpt lat="45.15876157729735" lon="10.785376865695111"><ele>25.0</ele><time>2026-04-08T13:53:16Z</time></trkpt><trkpt lat="45.15869655955785" lon="10.785418208632539"><ele>25.000000000000004</ele><time>2026-04-08T13:53:17Z</time></trkpt><trkpt lat="45.15862628240767" lon="10.78546535025209"><ele>25.0</ele><time>2026-04-08T13:53:18Z</time></trkpt><trkpt lat="45.15856010337408" lon="10.78550714455885"><ele>25.0</ele><time>2026-04-08T13:53:19Z</time></trkpt><trkpt lat="45.158498538471136" lon="10.785551620053123"><ele>25.0</ele><time>2026-04-08T13:53:20Z</time></trkpt><trkpt lat="45.15842939226245" lon="10.785581438109228"><ele>25.000000000000004</ele><time>2026-04-08T13:53:21Z</time></trkpt><trkpt lat="45.158354576490204" lon="10.785629526436141"><ele>25.0</ele><time>2026-04-08T13:53:22Z</time></trkpt><trkpt lat="45.158276708237956" lon="10.785679576696928"><ele>25.000000000000004</ele><time>2026-04-08T13:53:23Z</time></trkpt><trkpt lat="45.1581981065451" lon="10.785747376069951"><ele>25.0</ele><time>2026-04-08T13:53:24Z</time></trkpt><trkpt lat="45.15812293079536" lon="10.785794896799013"><ele>25.0</ele><time>2026-04-08T13:53:25Z</time></trkpt><trkpt lat="45.15804801684508" lon="10.785841934904845"><ele>25.0</ele><time>2026-04-08T13:53:26Z</time></trkpt><trkpt lat="45.15796420610136" lon="10.785891211981532"><ele>25.000000000000004</ele><time>2026-04-08T13:53:27Z</time></trkpt><trkpt lat="45.157886672317325" lon="10.785939316368752"><ele>25.0</ele><time>2026-04-08T13:53:28Z</time></trkpt><trkpt lat="45.157819178430145" lon="10.78598006786488"><ele>24.833333333333336</ele><time>2026-04-08T13:53:29Z</time></trkpt><trkpt lat="45.15775932600326" lon="10.786012925175914"><ele>24.666666666666668</ele><time>2026-04-08T13:53:30Z</time></trkpt><trkpt lat="45.15767019855306" lon="10.786062522591859"><ele>24.5</ele><time>2026-04-08T13:53:32Z</time></trkpt><trkpt lat="45.15760804945472" lon="10.78609436367846"><ele>24.333333333333336</ele><time>2026-04-08T13:53:35Z</time></trkpt><trkpt lat="45.15754068050548" lon="10.786109571915002"><ele>24.166666666666668</ele><time>2026-04-08T13:53:42Z</time></trkpt><trkpt lat="45.1575128744128" lon="10.786288826292843"><ele>24.0</ele><time>2026-04-08T13:53:44Z</time></trkpt><trkpt lat="45.15751452879324" lon="10.786393991791751"><ele>24.0</ele><time>2026-04-08T13:53:45Z</time></trkpt><trkpt lat="45.15751647144838" lon="10.786504495750954"><ele>24.0</ele><time>2026-04-08T13:53:46Z</time></trkpt><trkpt lat="45.15751790469643" lon="10.786616220723939"><ele>24.0</ele><time>2026-04-08T13:53:47Z</time></trkpt><trkpt lat="45.157523376322224" lon="10.786730751338803"><ele>24.0</ele><time>2026-04-08T13:53:48Z</time></trkpt><trkpt lat="45.157531648468414" lon="10.786842724179595"><ele>24.0</ele><time>2026-04-08T13:53:49Z</time></trkpt><trkpt lat="45.15753928874626" lon="10.786956593746844"><ele>24.0</ele><time>2026-04-08T13:53:50Z</time></trkpt><trkpt lat="45.15754642243554" lon="10.787068035302164"><ele>24.0</ele><time>2026-04-08T13:53:51Z</time></trkpt><trkpt lat="45.157536253299995" lon="10.78717327183021"><ele>24.0</ele><time>2026-04-08T13:53:52Z</time></trkpt><trkpt lat="45.15754065149138" lon="10.787278049275335"><ele>24.0</ele><time>2026-04-08T13:53:53Z</time></trkpt><trkpt lat="45.157545094596905" lon="10.787384116166017"><ele>24.0</ele><time>2026-04-08T13:53:54Z</time></trkpt><trkpt lat="45.15754978686674" lon="10.787496131133787"><ele>24.0</ele><time>2026-04-08T13:53:55Z</time></trkpt><trkpt lat="45.15755458970317" lon="10.787610785695655"><ele>24.0</ele><time>2026-04-08T13:53:56Z</time></trkpt><trkpt lat="45.15755962316468" lon="10.787730945635168"><ele>24.166666666666668</ele><time>2026-04-08T13:53:57Z</time></trkpt><trkpt lat="45.15756664117409" lon="10.78784305471223"><ele>24.333333333333336</ele><time>2026-04-08T13:53:58Z</time></trkpt><trkpt lat="45.157571601715674" lon="10.787957052827823"><ele>24.5</ele><time>2026-04-08T13:53:59Z</time></trkpt><trkpt lat="45.15757820652059" lon="10.788076820357052"><ele>24.666666666666668</ele><time>2026-04-08T13:54:00Z</time></trkpt><trkpt lat="45.15758603740697" lon="10.78819547653177"><ele>24.833333333333336</ele><time>2026-04-08T13:54:01Z</time></trkpt><trkpt lat="45.15759400440216" lon="10.788317109947315"><ele>25.0</ele><time>2026-04-08T13:54:02Z</time></trkpt><trkpt lat="45.157604479156774" lon="10.788442000291095"><ele>25.333333333333336</ele><time>2026-04-08T13:54:03Z</time></trkpt><trkpt lat="45.157600231521165" lon="10.78856730010219"><ele>25.666666666666668</ele><time>2026-04-08T13:54:04Z</time></trkpt><trkpt lat="45.157606225105205" lon="10.788691834467059"><ele>26.0</ele><time>2026-04-08T13:54:05Z</time></trkpt><trkpt lat="45.157610043361665" lon="10.78882134506745"><ele>26.333333333333336</ele><time>2026-04-08T13:54:06Z</time></trkpt><trkpt lat="45.15761368376968" lon="10.788943444651494"><ele>26.666666666666668</ele><time>2026-04-08T13:54:07Z</time></trkpt><trkpt lat="45.15761877856852" lon="10.78906197786383"><ele>27.0</ele><time>2026-04-08T13:54:08Z</time></trkpt><trkpt lat="45.157623196358095" lon="10.78917825054747"><ele>27.0</ele><time>2026-04-08T13:54:09Z</time></trkpt><trkpt lat="45.157625789408954" lon="10.789278708998035"><ele>27.0</ele><time>2026-04-08T13:54:10Z</time></trkpt><trkpt lat="45.15762984334497" lon="10.789443177564698"><ele>27.0</ele><time>2026-04-08T13:54:12Z</time></trkpt><trkpt lat="45.15759869398114" lon="10.789542866031983"><ele>27.0</ele><time>2026-04-08T13:54:14Z</time></trkpt><trkpt lat="45.1575282160123" lon="10.789646827865871"><ele>27.0</ele><time>2026-04-08T13:54:16Z</time></trkpt><trkpt lat="45.15746592674349" lon="10.789672177773275"><ele>27.0</ele><time>2026-04-08T13:54:17Z</time></trkpt><trkpt lat="45.15740943820151" lon="10.789726297658943"><ele>27.666666666666668</ele><time>2026-04-08T13:54:18Z</time></trkpt><trkpt lat="45.157352066987265" lon="10.78978443436992"><ele>28.333333333333336</ele><time>2026-04-08T13:54:19Z</time></trkpt><trkpt lat="45.15726886071696" lon="10.789874947503877"><ele>29.0</ele><time>2026-04-08T13:54:21Z</time></trkpt><trkpt lat="45.15721313652616" lon="10.789947891172318"><ele>29.666666666666668</ele><time>2026-04-08T13:54:26Z</time></trkpt><trkpt lat="45.15716180538919" lon="10.7900252937835"><ele>30.333333333333336</ele><time>2026-04-08T13:54:28Z</time></trkpt><trkpt lat="45.15709037804595" lon="10.790155589922344"><ele>31.0</ele><time>2026-04-08T13:54:30Z</time></trkpt><trkpt lat="45.157027567628056" lon="10.79026825349214"><ele>31.0</ele><time>2026-04-08T13:54:32Z</time></trkpt><trkpt lat="45.156972477180894" lon="10.790365534187833"><ele>31.0</ele><time>2026-04-08T13:54:34Z</time></trkpt><trkpt lat="45.15690336839563" lon="10.790496842499428"><ele>31.0</ele><time>2026-04-08T13:54:36Z</time></trkpt><trkpt lat="45.1568576718587" lon="10.7905788593286"><ele>31.0</ele><time>2026-04-08T13:54:37Z</time></trkpt><trkpt lat="45.15680296066916" lon="10.790673623756385"><ele>31.0</ele><time>2026-04-08T13:54:38Z</time></trkpt><trkpt lat="45.15674471733305" lon="10.790779848775014"><ele>31.000000000000004</ele><time>2026-04-08T13:54:39Z</time></trkpt><trkpt lat="45.15668833232983" lon="10.790886235023054"><ele>31.0</ele><time>2026-04-08T13:54:40Z</time></trkpt><trkpt lat="45.156633899507746" lon="10.790984067738327"><ele>31.0</ele><time>2026-04-08T13:54:41Z</time></trkpt><trkpt lat="45.156581327564155" lon="10.79108171870573"><ele>31.0</ele><time>2026-04-08T13:54:42Z</time></trkpt><trkpt lat="45.156537974560145" lon="10.79116529963077"><ele>31.000000000000004</ele><time>2026-04-08T13:54:43Z</time></trkpt><trkpt lat="45.15648283591087" lon="10.791268770562457"><ele>31.0</ele><time>2026-04-08T13:54:45Z</time></trkpt><trkpt lat="45.15643256552343" lon="10.79134612199097"><ele>30.166666666666668</ele><time>2026-04-08T13:54:47Z</time></trkpt><trkpt lat="45.1563525097127" lon="10.791409790102046"><ele>29.333333333333336</ele><time>2026-04-08T13:54:49Z</time></trkpt><trkpt lat="45.15627472015082" lon="10.791440952954536"><ele>28.5</ele><time>2026-04-08T13:54:51Z</time></trkpt><trkpt lat="45.15620537128065" lon="10.79144221352591"><ele>27.666666666666664</ele><time>2026-04-08T13:54:53Z</time></trkpt><trkpt lat="45.15613198058429" lon="10.791449347002166"><ele>26.833333333333332</ele><time>2026-04-08T13:54:55Z</time></trkpt><trkpt lat="45.156065051483736" lon="10.791373547086181"><ele>26.0</ele><time>2026-04-08T13:54:57Z</time></trkpt><trkpt lat="45.15596785593754" lon="10.791301022815727"><ele>25.999999999999996</ele><time>2026-04-08T13:54:59Z</time></trkpt><trkpt lat="45.15586096495292" lon="10.79123196495731"><ele>26.0</ele><time>2026-04-08T13:55:01Z</time></trkpt><trkpt lat="45.155799254598286" lon="10.791192102531294"><ele>26.0</ele><time>2026-04-08T13:55:02Z</time></trkpt><trkpt lat="45.155733743524486" lon="10.79114667551213"><ele>26.0</ele><time>2026-04-08T13:55:03Z</time></trkpt><trkpt lat="45.15566926831524" lon="10.791101807897698"><ele>25.999999999999996</ele><time>2026-04-08T13:55:04Z</time></trkpt><trkpt lat="45.155607148776404" lon="10.791055353428007"><ele>26.0</ele><time>2026-04-08T13:55:05Z</time></trkpt><trkpt lat="45.15554636265187" lon="10.791009582393132"><ele>26.428571428571427</ele><time>2026-04-08T13:55:06Z</time></trkpt><trkpt lat="45.155487622837185" lon="10.790965912803024"><ele>26.85714285714286</ele><time>2026-04-08T13:55:07Z</time></trkpt><trkpt lat="45.15542616743709" lon="10.790924811269416"><ele>27.28571428571429</ele><time>2026-04-08T13:55:08Z</time></trkpt><trkpt lat="45.1553643920284" lon="10.790879386380755"><ele>27.714285714285715</ele><time>2026-04-08T13:55:09Z</time></trkpt><trkpt lat="45.15529761803853" lon="10.790833016457952"><ele>28.142857142857146</ele><time>2026-04-08T13:55:10Z</time></trkpt><trkpt lat="45.155230761762425" lon="10.790787663915372"><ele>28.571428571428577</ele><time>2026-04-08T13:55:11Z</time></trkpt><trkpt lat="45.15516720170394" lon="10.790739694776367"><ele>29.000000000000004</ele><time>2026-04-08T13:55:12Z</time></trkpt><trkpt lat="45.15510102872294" lon="10.790693247223428"><ele>28.999999999999996</ele><time>2026-04-08T13:55:13Z</time></trkpt><trkpt lat="45.155035591537406" lon="10.790656135265301"><ele>29.0</ele><time>2026-04-08T13:55:14Z</time></trkpt><trkpt lat="45.154975988022905" lon="10.790621005317327"><ele>29.0</ele><time>2026-04-08T13:55:15Z</time></trkpt><trkpt lat="45.154927203702805" lon="10.790562181513433"><ele>29.0</ele><time>2026-04-08T13:55:16Z</time></trkpt><trkpt lat="45.1548469768893" lon="10.790506723650063"><ele>28.999999999999996</ele><time>2026-04-08T13:55:18Z</time></trkpt><trkpt lat="45.15475452357037" lon="10.790447772433136"><ele>29.0</ele><time>2026-04-08T13:55:20Z</time></trkpt><trkpt lat="45.15469232690442" lon="10.790410396738496"><ele>28.999999999999996</ele><time>2026-04-08T13:55:21Z</time></trkpt><trkpt lat="45.15461431486558" lon="10.79036058174466"><ele>29.0</ele><time>2026-04-08T13:55:22Z</time></trkpt><trkpt lat="45.15453503697189" lon="10.790320030808694"><ele>29.0</ele><time>2026-04-08T13:55:23Z</time></trkpt><trkpt lat="45.154452368804264" lon="10.79028270844154"><ele>29.0</ele><time>2026-04-08T13:55:24Z</time></trkpt><trkpt lat="45.154364116561005" lon="10.790248259309692"><ele>28.999999999999996</ele><time>2026-04-08T13:55:25Z</time></trkpt><trkpt lat="45.154272699230944" lon="10.790208017553667"><ele>29.0</ele><time>2026-04-08T13:55:26Z</time></trkpt><trkpt lat="45.15418023944598" lon="10.79015962445551"><ele>28.4</ele><time>2026-04-08T13:55:27Z</time></trkpt><trkpt lat="45.1540879762193" lon="10.79011002216783"><ele>27.799999999999997</ele><time>2026-04-08T13:55:28Z</time></trkpt><trkpt lat="45.153996308083755" lon="10.790059682891238"><ele>27.200000000000003</ele><time>2026-04-08T13:55:29Z</time></trkpt><trkpt lat="45.153903772290086" lon="10.790009679193192"><ele>26.6</ele><time>2026-04-08T13:55:30Z</time></trkpt><trkpt lat="45.15382429808405" lon="10.789964558747393"><ele>26.0</ele><time>2026-04-08T13:55:31Z</time></trkpt><trkpt lat="45.15373921764431" lon="10.789909571756667"><ele>25.666666666666664</ele><time>2026-04-08T13:55:32Z</time></trkpt><trkpt lat="45.153659200529106" lon="10.789861298304082"><ele>25.333333333333332</ele><time>2026-04-08T13:55:33Z</time></trkpt><trkpt lat="45.153581419020234" lon="10.789812212070402"><ele>25.0</ele><time>2026-04-08T13:55:34Z</time></trkpt><trkpt lat="45.153504184101294" lon="10.789751912765407"><ele>24.666666666666664</ele><time>2026-04-08T13:55:35Z</time></trkpt><trkpt lat="45.1534381938734" lon="10.78970228035925"><ele>24.333333333333332</ele><time>2026-04-08T13:55:36Z</time></trkpt><trkpt lat="45.153377096793356" lon="10.789666471552637"><ele>24.0</ele><time>2026-04-08T13:55:37Z</time></trkpt><trkpt lat="45.15327383124354" lon="10.789606818036694"><ele>24.0</ele><time>2026-04-08T13:55:39Z</time></trkpt><trkpt lat="45.15321174843552" lon="10.78955567052499"><ele>24.0</ele><time>2026-04-08T13:55:41Z</time></trkpt><trkpt lat="45.15313909053442" lon="10.789707051623221"><ele>24.0</ele><time>2026-04-08T13:55:42Z</time></trkpt><trkpt lat="45.15310842161339" lon="10.789792953307293"><ele>24.0</ele><time>2026-04-08T13:55:43Z</time></trkpt><trkpt lat="45.15307470081044" lon="10.7898836489864"><ele>24.0</ele><time>2026-04-08T13:55:44Z</time></trkpt><trkpt lat="45.15303590366259" lon="10.789977644992153"><ele>24.0</ele><time>2026-04-08T13:55:45Z</time></trkpt><trkpt lat="45.15298917668446" lon="10.790083498587213"><ele>24.0</ele><time>2026-04-08T13:55:46Z</time></trkpt><trkpt lat="45.15294042792003" lon="10.790201291971673"><ele>24.0</ele><time>2026-04-08T13:55:47Z</time></trkpt><trkpt lat="45.15288697664134" lon="10.790310936086344"><ele>24.0</ele><time>2026-04-08T13:55:48Z</time></trkpt><trkpt lat="45.152844067187615" lon="10.790424478639382"><ele>24.0</ele><time>2026-04-08T13:55:49Z</time></trkpt><trkpt lat="45.1528049973652" lon="10.790527538346433"><ele>24.0</ele><time>2026-04-08T13:55:50Z</time></trkpt><trkpt lat="45.15277070395777" lon="10.790618359186984"><ele>24.0</ele><time>2026-04-08T13:55:51Z</time></trkpt><trkpt lat="45.15273713752039" lon="10.790694322779544"><ele>24.0</ele><time>2026-04-08T13:55:52Z</time></trkpt><trkpt lat="45.152678004924105" lon="10.790828975224942"><ele>24.0</ele><time>2026-04-08T13:55:54Z</time></trkpt><trkpt lat="45.1526357882968" lon="10.790924173360384"><ele>24.0</ele><time>2026-04-08T13:55:56Z</time></trkpt><trkpt lat="45.15258561684411" lon="10.791035977290512"><ele>24.0</ele><time>2026-04-08T13:55:59Z</time></trkpt><trkpt lat="45.15254685422315" lon="10.791123586897097"><ele>24.0</ele><time>2026-04-08T13:56:01Z</time></trkpt><trkpt lat="45.152492117021865" lon="10.791247339324613"><ele>23.833333333333332</ele><time>2026-04-08T13:56:03Z</time></trkpt><trkpt lat="45.15242530159352" lon="10.7913893982299"><ele>23.666666666666668</ele><time>2026-04-08T13:56:05Z</time></trkpt><trkpt lat="45.15235659477709" lon="10.791534172098064"><ele>23.5</ele><time>2026-04-08T13:56:07Z</time></trkpt><trkpt lat="45.15231728774596" lon="10.791610523753617"><ele>23.333333333333336</ele><time>2026-04-08T13:56:08Z</time></trkpt><trkpt lat="45.1522797342712" lon="10.791688383474723"><ele>23.166666666666668</ele><time>2026-04-08T13:56:09Z</time></trkpt><trkpt lat="45.15224047906603" lon="10.79176596627479"><ele>23.0</ele><time>2026-04-08T13:56:10Z</time></trkpt><trkpt lat="45.152204197195424" lon="10.791841254933932"><ele>23.0</ele><time>2026-04-08T13:56:11Z</time></trkpt><trkpt lat="45.15213726629312" lon="10.791988237849955"><ele>23.0</ele><time>2026-04-08T13:56:13Z</time></trkpt><trkpt lat="45.15210097924128" lon="10.792067256724884"><ele>23.0</ele><time>2026-04-08T13:56:14Z</time></trkpt><trkpt lat="45.152063680804645" lon="10.792153532111554"><ele>23.0</ele><time>2026-04-08T13:56:15Z</time></trkpt><trkpt lat="45.152025676493345" lon="10.792237650377823"><ele>23.0</ele><time>2026-04-08T13:56:16Z</time></trkpt><trkpt lat="45.151985241773495" lon="10.792324621180976"><ele>23.0</ele><time>2026-04-08T13:56:17Z</time></trkpt><trkpt lat="45.15194336432337" lon="10.792412969209757"><ele>23.0</ele><time>2026-04-08T13:56:18Z</time></trkpt><trkpt lat="45.151905322429585" lon="10.792499307262604"><ele>23.0</ele><time>2026-04-08T13:56:19Z</time></trkpt><trkpt lat="45.15186301257152" lon="10.792615473913513"><ele>23.0</ele><time>2026-04-08T13:56:21Z</time></trkpt><trkpt lat="45.1518253910445" lon="10.792703730952345"><ele>23.0</ele><time>2026-04-08T13:56:23Z</time></trkpt><trkpt lat="45.15177798826892" lon="10.792808783409207"><ele>23.0</ele><time>2026-04-08T13:56:25Z</time></trkpt><trkpt lat="45.15171961764623" lon="10.792940050794058"><ele>23.0</ele><time>2026-04-08T13:56:27Z</time></trkpt><trkpt lat="45.15166449117809" lon="10.793063035740868"><ele>22.833333333333336</ele><time>2026-04-08T13:56:29Z</time></trkpt><trkpt lat="45.15161153977583" lon="10.793177559578053"><ele>22.666666666666668</ele><time>2026-04-08T13:56:31Z</time></trkpt><trkpt lat="45.15157510538672" lon="10.793254047591628"><ele>22.5</ele><time>2026-04-08T13:56:33Z</time></trkpt><trkpt lat="45.15152723813969" lon="10.793366151818748"><ele>22.333333333333332</ele><time>2026-04-08T13:56:36Z</time></trkpt><trkpt lat="45.151484661125394" lon="10.793454024563053"><ele>22.166666666666664</ele><time>2026-04-08T13:56:38Z</time></trkpt><trkpt lat="45.15144341788414" lon="10.793548406795724"><ele>22.0</ele><time>2026-04-08T13:56:40Z</time></trkpt><trkpt lat="45.1513993674093" lon="10.793645999058919"><ele>22.0</ele><time>2026-04-08T13:56:42Z</time></trkpt><trkpt lat="45.151363528907765" lon="10.793727125434398"><ele>22.0</ele><time>2026-04-08T13:56:44Z</time></trkpt><trkpt lat="45.151326567611704" lon="10.793808927154053"><ele>22.0</ele><time>2026-04-08T13:56:46Z</time></trkpt><trkpt lat="45.151282128566145" lon="10.793899615164193"><ele>22.0</ele><time>2026-04-08T13:56:48Z</time></trkpt><trkpt lat="45.151242483987154" lon="10.793988308710151"><ele>22.0</ele><time>2026-04-08T13:56:50Z</time></trkpt><trkpt lat="45.15120364688922" lon="10.794075203100313"><ele>22.0</ele><time>2026-04-08T13:56:52Z</time></trkpt><trkpt lat="45.15116298201233" lon="10.794155935743454"><ele>22.0</ele><time>2026-04-08T13:56:54Z</time></trkpt><trkpt lat="45.151118846175834" lon="10.794247551917342"><ele>22.0</ele><time>2026-04-08T13:56:56Z</time></trkpt><trkpt lat="45.15106321498213" lon="10.794372601099726"><ele>22.0</ele><time>2026-04-08T13:56:58Z</time></trkpt><trkpt lat="45.15103208040735" lon="10.79445097632515"><ele>22.0</ele><time>2026-04-08T13:56:59Z</time></trkpt><trkpt lat="45.15099696029952" lon="10.794535203548179"><ele>22.0</ele><time>2026-04-08T13:57:00Z</time></trkpt><trkpt lat="45.15095834071935" lon="10.794621356518467"><ele>22.0</ele><time>2026-04-08T13:57:01Z</time></trkpt><trkpt lat="45.15091646720049" lon="10.794711686137775"><ele>22.0</ele><time>2026-04-08T13:57:02Z</time></trkpt><trkpt lat="45.150871204659474" lon="10.794805490000593"><ele>22.0</ele><time>2026-04-08T13:57:03Z</time></trkpt><trkpt lat="45.150826830785185" lon="10.794907319338984"><ele>22.0</ele><time>2026-04-08T13:57:04Z</time></trkpt><trkpt lat="45.150781510267365" lon="10.795015749812327"><ele>22.0</ele><time>2026-04-08T13:57:05Z</time></trkpt><trkpt lat="45.15073579189392" lon="10.795127580751293"><ele>22.0</ele><time>2026-04-08T13:57:06Z</time></trkpt><trkpt lat="45.15068780085076" lon="10.795240746706257"><ele>22.0</ele><time>2026-04-08T13:57:07Z</time></trkpt><trkpt lat="45.15064195692243" lon="10.795349009030813"><ele>22.0</ele><time>2026-04-08T13:57:08Z</time></trkpt><trkpt lat="45.15059771745377" lon="10.795449555267199"><ele>22.166666666666664</ele><time>2026-04-08T13:57:09Z</time></trkpt><trkpt lat="45.15056366528176" lon="10.795534740418143"><ele>22.333333333333332</ele><time>2026-04-08T13:57:10Z</time></trkpt><trkpt lat="45.15053341347394" lon="10.795663222483533"><ele>22.5</ele><time>2026-04-08T13:57:12Z</time></trkpt><trkpt lat="45.150509772676266" lon="10.795754513929241"><ele>22.666666666666668</ele><time>2026-04-08T13:57:15Z</time></trkpt><trkpt lat="45.15050937111806" lon="10.795875450455183"><ele>22.833333333333336</ele><time>2026-04-08T13:57:19Z</time></trkpt><trkpt lat="45.150578238105716" lon="10.796002688697872"><ele>23.0</ele><time>2026-04-08T13:57:21Z</time></trkpt><trkpt lat="45.15070462506919" lon="10.796001533922132"><ele>23.0</ele><time>2026-04-08T13:57:23Z</time></trkpt><trkpt lat="45.15077541186714" lon="10.796007796703043"><ele>23.0</ele><time>2026-04-08T13:57:24Z</time></trkpt><trkpt lat="45.15085168990871" lon="10.796041604408094"><ele>23.0</ele><time>2026-04-08T13:57:25Z</time></trkpt><trkpt lat="45.15093941297489" lon="10.796054717303141"><ele>23.0</ele><time>2026-04-08T13:57:26Z</time></trkpt><trkpt lat="45.15103262315449" lon="10.796068650445225"><ele>23.0</ele><time>2026-04-08T13:57:27Z</time></trkpt><trkpt lat="45.15112844147393" lon="10.796077943430898"><ele>23.0</ele><time>2026-04-08T13:57:28Z</time></trkpt><trkpt lat="45.15121872526751" lon="10.796081960168134"><ele>23.0</ele><time>2026-04-08T13:57:29Z</time></trkpt><trkpt lat="45.15130709950927" lon="10.796091377730583"><ele>23.0</ele><time>2026-04-08T13:57:30Z</time></trkpt><trkpt lat="45.15139432906434" lon="10.796097416276913"><ele>23.0</ele><time>2026-04-08T13:57:31Z</time></trkpt><trkpt lat="45.151487632771605" lon="10.796106673626461"><ele>23.0</ele><time>2026-04-08T13:57:32Z</time></trkpt><trkpt lat="45.15157466405004" lon="10.796114244849207"><ele>23.0</ele><time>2026-04-08T13:57:33Z</time></trkpt><trkpt lat="45.15166834808511" lon="10.796122899772275"><ele>23.0</ele><time>2026-04-08T13:57:34Z</time></trkpt><trkpt lat="45.151766766157124" lon="10.796129099830054"><ele>23.0</ele><time>2026-04-08T13:57:35Z</time></trkpt><trkpt lat="45.15186271556696" lon="10.796135487692567"><ele>23.0</ele><time>2026-04-08T13:57:36Z</time></trkpt><trkpt lat="45.151964700631154" lon="10.796142992698032"><ele>23.0</ele><time>2026-04-08T13:57:37Z</time></trkpt><trkpt lat="45.15206815006529" lon="10.796150697593218"><ele>23.0</ele><time>2026-04-08T13:57:38Z</time></trkpt><trkpt lat="45.15217298565647" lon="10.796162643167946"><ele>23.0</ele><time>2026-04-08T13:57:39Z</time></trkpt><trkpt lat="45.1522724979004" lon="10.796173691554843"><ele>23.0</ele><time>2026-04-08T13:57:40Z</time></trkpt><trkpt lat="45.152376024798926" lon="10.79618671059014"><ele>23.0</ele><time>2026-04-08T13:57:41Z</time></trkpt><trkpt lat="45.152480217864145" lon="10.796202469007824"><ele>23.0</ele><time>2026-04-08T13:57:42Z</time></trkpt><trkpt lat="45.15258306556194" lon="10.796217192830815"><ele>23.0</ele><time>2026-04-08T13:57:43Z</time></trkpt><trkpt lat="45.152682891082776" lon="10.796232787715478"><ele>23.166666666666668</ele><time>2026-04-08T13:57:44Z</time></trkpt><trkpt lat="45.1527795920206" lon="10.796240864964563"><ele>23.333333333333336</ele><time>2026-04-08T13:57:45Z</time></trkpt><trkpt lat="45.152865374305925" lon="10.796256876920532"><ele>23.5</ele><time>2026-04-08T13:57:46Z</time></trkpt><trkpt lat="45.15294809240137" lon="10.79626740279805"><ele>23.666666666666668</ele><time>2026-04-08T13:57:47Z</time></trkpt><trkpt lat="45.15303072051162" lon="10.796286346104994"><ele>23.833333333333332</ele><time>2026-04-08T13:57:48Z</time></trkpt><trkpt lat="45.1531117535687" lon="10.79631872448081"><ele>24.0</ele><time>2026-04-08T13:57:49Z</time></trkpt><trkpt lat="45.153190396013116" lon="10.796343307416384"><ele>23.799999999999997</ele><time>2026-04-08T13:57:50Z</time></trkpt><trkpt lat="45.15326615047519" lon="10.796369205235207"><ele>23.599999999999998</ele><time>2026-04-08T13:57:51Z</time></trkpt><trkpt lat="45.153346087893375" lon="10.796386933410764"><ele>23.4</ele><time>2026-04-08T13:57:52Z</time></trkpt><trkpt lat="45.153435189214086" lon="10.796406212786025"><ele>23.2</ele><time>2026-04-08T13:57:53Z</time></trkpt><trkpt lat="45.15353680250707" lon="10.796432081088529"><ele>23.0</ele><time>2026-04-08T13:57:54Z</time></trkpt><trkpt lat="45.15364196175889" lon="10.79645787639313"><ele>23.0</ele><time>2026-04-08T13:57:55Z</time></trkpt><trkpt lat="45.15374566006902" lon="10.796480852747377"><ele>23.0</ele><time>2026-04-08T13:57:56Z</time></trkpt><trkpt lat="45.15384357447669" lon="10.796504001733664"><ele>23.0</ele><time>2026-04-08T13:57:57Z</time></trkpt><trkpt lat="45.15393545090925" lon="10.796525575616597"><ele>23.0</ele><time>2026-04-08T13:57:58Z</time></trkpt><trkpt lat="45.154013740338286" lon="10.796533403336266"><ele>23.0</ele><time>2026-04-08T13:57:59Z</time></trkpt><trkpt lat="45.154123392407975" lon="10.796553386107735"><ele>23.2</ele><time>2026-04-08T13:58:01Z</time></trkpt><trkpt lat="45.15417694712725" lon="10.796640275339957"><ele>23.4</ele><time>2026-04-08T13:58:04Z</time></trkpt><trkpt lat="45.154163814403574" lon="10.796747149748885"><ele>23.599999999999998</ele><time>2026-04-08T13:58:06Z</time></trkpt><trkpt lat="45.154154815067606" lon="10.796891958553367"><ele>23.799999999999997</ele><time>2026-04-08T13:58:08Z</time></trkpt><trkpt lat="45.15414548616103" lon="10.797038101140135"><ele>24.0</ele><time>2026-04-08T13:58:10Z</time></trkpt><trkpt lat="45.15413796907127" lon="10.79717804292064"><ele>23.4</ele><time>2026-04-08T13:58:12Z</time></trkpt><trkpt lat="45.15413331664599" lon="10.797292867561897"><ele>22.799999999999997</ele><time>2026-04-08T13:58:14Z</time></trkpt><trkpt lat="45.15412587183672" lon="10.797428965200217"><ele>22.200000000000003</ele><time>2026-04-08T13:58:16Z</time></trkpt><trkpt lat="45.15412181364172" lon="10.797570897836714"><ele>21.6</ele><time>2026-04-08T13:58:18Z</time></trkpt><trkpt lat="45.154114680597765" lon="10.797704521434211"><ele>21.0</ele><time>2026-04-08T13:58:20Z</time></trkpt><trkpt lat="45.15411525893164" lon="10.797847600521637"><ele>19.0</ele><time>2026-04-08T13:58:22Z</time></trkpt><trkpt lat="45.15412055999044" lon="10.797968468733904"><ele>19.0</ele><time>2026-04-08T13:58:24Z</time></trkpt><trkpt lat="45.15410643237719" lon="10.798064402436246"><ele>19.0</ele><time>2026-04-08T13:58:28Z</time></trkpt></trkseg></trk></gpx>